Login
Accedi
Inserisci nome utente e password del forum per poter accedere.


Non disponi di un account? Registrati qui gratuitamente

marco
4 attività - Ultimo allenamento il 08/12/2016
08/12/2016 Visibile a tutti tripletta al Bar 73.63 2331 05:30:30 13.37 Km\h
05/12/2016 Visibile a tutti Afternoon Ride 31 780 01:48:48 17.1 Km\h
02/12/2016 Visibile a tutti 28 36.05 859 01:33:50 23.05 Km\h
01/12/2016 Visibile a tutti Etna 54.73 1569 02:40:54 20.41 Km\h
29/11/2016 Visibile a tutti Giro del monte rinfrescante 29.05 314 01:09:35 25.05 Km\h
28/11/2016 Visibile a tutti San Lucio 58.86 1665 04:18:35 13.66 Km\h
26/11/2016 Visibile a tutti Malcantone tropicale 29.18 931 01:29:14 19.62 Km\h
24/11/2016 Visibile a tutti Umiditá 36.24 873 01:39:14 21.91 Km\h
23/11/2016 Visibile a tutti Monsone 32.17 912 01:48:52 17.73 Km\h
20/11/2016 Visibile a tutti XC 26.31 624 01:36:58 16.28 Km\h
17/11/2016 Visibile a tutti Afternoon ride 20.78 777 01:36:09 12.97 Km\h
16/11/2016 Visibile a tutti night ride 23.57 810 02:08:49 10.98 Km\h
14/11/2016 Visibile a tutti Girovagando 28.05 531 01:32:02 18.29 Km\h
13/11/2016 Visibile a tutti Giret 38.03 912 01:48:25 21.04 Km\h
11/11/2016 Visibile a tutti Foglia 28.18 532 01:36:25 17.54 Km\h
10/11/2016 Visibile a tutti Penisola con l'ovino 47.39 1077 02:13:42 21.27 Km\h
08/11/2016 Visibile a tutti Frozen 30.81 1225 02:08:12 14.42 Km\h
07/11/2016 Visibile a tutti 3rd week in the ribs pain. Getting better! 36.13 869 01:36:35 22.45 Km\h
04/11/2016 Visibile a tutti Girus interruptus 28.57 932 01:58:31 14.46 Km\h
03/11/2016 Visibile a tutti With the kids 16.17 194 01:21:30 11.9 Km\h
02/11/2016 Visibile a tutti Malcantone 28.86 920 01:27:29 19.79 Km\h
01/11/2016 Visibile a tutti Carona 35.96 855 01:39:12 21.75 Km\h
30/10/2016 Visibile a tutti Valcolla 43.41 993 01:54:11 22.81 Km\h
28/10/2016 Visibile a tutti Carona 36.16 846 01:41:14 21.43 Km\h
27/10/2016 Visibile a tutti Sighignola 74.91 1532 03:20:17 22.44 Km\h
25/10/2016 Visibile a tutti Tempo da lupi 35.84 842 01:40:23 21.42 Km\h
25/10/2016 Visibile a tutti Tempo da lupi 35.84 842 01:40:23 21.42 Km\h
21/10/2016 Visibile a tutti piandanazzo 29.9 1358 02:19:36 12.85 Km\h
20/10/2016 Visibile a tutti Spare ribs 35.98 845 01:38:44 21.87 Km\h
19/10/2016 Visibile a tutti crocione-crash-ribs-pain 19.34 935 01:35:09 12.2 Km\h
18/10/2016 Visibile a tutti San Lucio 22.9 779 01:54:01 12.05 Km\h
17/10/2016 Visibile a tutti Morning ride 18.01 270 01:02:37 17.26 Km\h
17/10/2016 Visibile a tutti the whole tamarrata finale inedito 23.99 610 01:59:53 12.01 Km\h
15/10/2016 Visibile a tutti Afternoon Ride 19.52 673 00:55:19 21.17 Km\h
15/10/2016 Visibile a tutti Afternoon Ride 17.07 214 00:38:36 26.53 Km\h
12/10/2016 Visibile a tutti Giro del monte 30.39 471 01:13:05 24.95 Km\h
11/10/2016 Visibile a tutti After the rain 30.84 759 01:48:55 16.99 Km\h
10/10/2016 Visibile a tutti Winter 29.03 1166 02:13:35 13.04 Km\h
06/10/2016 Visibile a tutti Fizik 2 84.02 1290 03:13:51 26.01 Km\h
05/10/2016 Visibile a tutti Fizik 1 52 800 01:59:03 26.21 Km\h
04/10/2016 Visibile a tutti Valstagna 43.06 126 01:23:20 31.01 Km\h
04/10/2016 Visibile a tutti Quickie 27.34 538 01:28:20 18.57 Km\h
03/10/2016 Visibile a tutti Windy 24.55 983 02:01:23 12.14 Km\h
30/09/2016 Visibile a tutti Afternoon Ride 30.91 730 01:47:12 17.3 Km\h
29/09/2016 Visibile a tutti Bedretto part 1 18.74 345 01:22:18 13.66 Km\h
29/09/2016 Visibile a tutti Bedretto part 2 29.69 360 02:05:00 14.25 Km\h
28/09/2016 Visibile a tutti Carona 35.84 831 01:34:59 22.64 Km\h
27/09/2016 Visibile a tutti Morning Ride 8.01 107 00:26:54 17.86 Km\h
27/09/2016 Visibile a tutti The whole tamarrata 18.08 376 01:40:31 10.79 Km\h
26/09/2016 Visibile a tutti Chiesa non me la fai! 18.6 870 01:38:15 11.36 Km\h
23/09/2016 Visibile a tutti Piandanazzo 30.45 1121 02:09:33 14.1 Km\h
23/09/2016 Visibile a tutti Piandanazzo 30.45 1121 02:09:33 14.1 Km\h
22/09/2016 Visibile a tutti Morning Ride 30.72 741 01:47:56 17.08 Km\h
20/09/2016 Visibile a tutti Venini 29.24 1207 02:25:16 12.08 Km\h
20/09/2016 Visibile a tutti Morning Ride 11.13 29 00:24:46 26.97 Km\h
19/09/2016 Visibile a tutti San Lucio 22.34 746 01:51:18 12.04 Km\h
17/09/2016 Visibile a tutti Carona 35.91 826 01:34:49 22.73 Km\h
16/09/2016 Visibile a tutti Crocione 18.51 872 01:40:57 11 Km\h
14/09/2016 Visibile a tutti Crocione 18.77 857 01:36:46 11.64 Km\h
13/09/2016 Visibile a tutti Gries 25.26 355 02:08:31 11.79 Km\h
12/09/2016 Visibile a tutti Condra 14.46 515 01:10:50 12.25 Km\h
11/09/2016 Visibile a tutti Arbostora 30.88 733 01:51:30 16.62 Km\h
10/09/2016 Visibile a tutti Valcolla 43.88 964 01:54:41 22.95 Km\h
08/09/2016 Visibile a tutti Pietrarossa 43.77 1745 03:16:10 13.39 Km\h
07/09/2016 Visibile a tutti Malcantone 29.08 902 01:25:51 20.33 Km\h
06/09/2016 Visibile a tutti San Lucio 56.6 1430 03:34:27 15.84 Km\h
05/09/2016 Visibile a tutti Fresh air 29.12 1117 02:10:44 13.36 Km\h
03/09/2016 Visibile a tutti Morning Ride 8.07 106 00:28:58 16.71 Km\h
03/09/2016 Visibile a tutti The whole Tamarrata 18.18 379 01:40:01 10.9 Km\h
02/09/2016 Visibile a tutti Alp mora - Escape from Eurobike 25.85 1374 02:39:03 9.75 Km\h
29/08/2016 Visibile a tutti Tropic thunder 30.82 738 01:55:47 15.97 Km\h
28/08/2016 Visibile a tutti Shitty tyre 10.14 248 00:36:22 16.73 Km\h
27/08/2016 Visibile a tutti Valcolla 43.48 971 01:54:28 22.79 Km\h
25/08/2016 Visibile a tutti Swiss odyssey Naret MTB 124.22 2632 07:19:14 16.97 Km\h
24/08/2016 Visibile a tutti The whole tamarrata 25.47 489 01:46:03 14.41 Km\h
23/08/2016 Visibile a tutti The whole Tamarrata 18.02 372 01:44:16 10.37 Km\h
23/08/2016 Visibile a tutti Lunch Ride 8.81 117 00:29:50 17.72 Km\h
22/08/2016 Visibile a tutti Home sweet home 36.98 1104 02:23:57 15.42 Km\h
20/08/2016 Visibile a tutti Monte Agnello 17.67 194 01:14:29 14.24 Km\h
20/08/2016 Visibile a tutti Morning Ride 16.06 202 00:51:08 18.84 Km\h
18/08/2016 Visibile a tutti Morning Ride 3.54 24 00:12:52 16.53 Km\h
18/08/2016 Visibile a tutti Strafexpedition 11.99 376 01:29:32 8.04 Km\h
17/08/2016 Visibile a tutti Laps with the kids 4.6 1 00:16:28 16.76 Km\h
16/08/2016 Visibile a tutti Giro del Lagorai BDC 166.38 4126 07:44:43 21.48 Km\h
14/08/2016 Visibile a tutti East of heaven 19.72 236 01:36:25 12.27 Km\h
14/08/2016 Visibile a tutti Morning Ride 16.16 210 00:45:04 21.52 Km\h
13/08/2016 Visibile a tutti Venegia 15.45 221 00:52:19 17.72 Km\h
13/08/2016 Visibile a tutti Rosetta 24.81 338 01:42:10 14.57 Km\h
13/08/2016 Visibile a tutti Passo Rolle 12.39 430 00:57:20 12.97 Km\h
12/08/2016 Visibile a tutti Lavazè + Oclini 35.4 1115 01:48:30 19.58 Km\h
11/08/2016 Visibile a tutti South of heaven 18.09 200 01:14:18 14.61 Km\h
11/08/2016 Visibile a tutti Morning Ride 15.38 203 00:47:12 19.55 Km\h
09/08/2016 Visibile a tutti Passo manghen 44.67 1305 02:15:00 19.85 Km\h
08/08/2016 Visibile a tutti Corno nero 30.18 1212 03:01:11 9.99 Km\h
06/08/2016 Visibile a tutti Hidden gem 34.94 1409 02:56:30 11.88 Km\h
04/08/2016 Visibile a tutti Monti Motti 23.23 1239 02:15:46 10.27 Km\h
03/08/2016 Visibile a tutti The whole tamarrata 18.14 375 01:38:09 11.09 Km\h
03/08/2016 Visibile a tutti Morning Ride 9.22 115 00:31:17 17.69 Km\h
02/08/2016 Visibile a tutti Easy beasy 34.25 655 01:30:28 22.71 Km\h
01/08/2016 Visibile a tutti San Lucio 59.13 1567 03:49:45 15.44 Km\h
30/07/2016 Visibile a tutti Dear old valcolla 43.71 972 01:50:55 23.64 Km\h
28/07/2016 Visibile a tutti Tafanata! 32.08 553 01:57:49 16.34 Km\h
27/07/2016 Visibile a tutti Traverso + 21 27.8 602 01:52:03 14.88 Km\h
26/07/2016 Visibile a tutti Autan vs. Tafani 1-0 32.41 553 01:53:30 17.13 Km\h
24/07/2016 Visibile a tutti Col Sembola/2 32.46 556 02:07:14 15.31 Km\h
23/07/2016 Visibile a tutti Col sembola 19.46 416 01:25:43 13.62 Km\h
22/07/2016 Visibile a tutti Morning Ride 38.66 619 02:15:36 17.11 Km\h
21/07/2016 Visibile a tutti Morning Ride 28.57 405 01:43:37 16.54 Km\h
20/07/2016 Visibile a tutti Morning Ride 21.11 355 01:22:50 15.29 Km\h
18/07/2016 Visibile a tutti Morning Ride 21.41 363 01:26:33 14.84 Km\h
18/07/2016 Visibile a tutti Afternoon Ride 5.76 55 00:38:23 9.01 Km\h
17/07/2016 Visibile a tutti Con Oscar 6.4 61 00:36:02 10.66 Km\h
17/07/2016 Visibile a tutti Guardian 22.2 366 01:27:31 15.22 Km\h
16/07/2016 Visibile a tutti Crank arm off 12.68 171 01:04:44 11.75 Km\h
16/07/2016 Visibile a tutti Ride with Axel 13.59 261 01:20:41 10.1 Km\h
14/07/2016 Visibile a tutti Valcolla 41.75 982 01:55:53 21.62 Km\h
12/07/2016 Visibile a tutti Breakfast ride 36.07 829 01:41:04 21.41 Km\h
10/07/2016 Visibile a tutti The whole tamarrata 19.48 418 01:45:42 11.06 Km\h
10/07/2016 Visibile a tutti Morning Ride 8.97 107 00:29:41 18.14 Km\h
09/07/2016 Visibile a tutti Escape from Worldcup ride 22.51 146 01:37:41 13.82 Km\h
09/07/2016 Visibile a tutti Afternoon Ride 9.1 0 00:42:34 12.82 Km\h
07/07/2016 Visibile a tutti Bregaglia 22.62 1345 02:37:28 8.62 Km\h
07/07/2016 Visibile a tutti Bregaglia 22.62 1345 02:37:28 8.62 Km\h
06/07/2016 Visibile a tutti Home alone 200.8 3370 08:00:01 25.1 Km\h
05/07/2016 Visibile a tutti Maloja Spritztour 27.92 725 01:15:37 22.15 Km\h
04/07/2016 Visibile a tutti Passo del Sole 24.55 519 02:02:43 12 Km\h
03/07/2016 Visibile a tutti The whole tamarrata 15.86 98 01:14:52 12.71 Km\h
03/07/2016 Visibile a tutti Lunch Ride 8.15 103 00:29:29 16.58 Km\h
02/07/2016 Visibile a tutti Morning Ride 56.8 1426 03:36:24 15.75 Km\h
01/07/2016 Visibile a tutti The whole tamarrata 18.21 378 01:35:53 11.4 Km\h
01/07/2016 Visibile a tutti Afternoon Ride 8.15 107 00:27:30 17.78 Km\h
30/06/2016 Visibile a tutti After EMD proper ride 36.86 1082 02:15:14 16.36 Km\h
29/06/2016 Visibile a tutti Lunch Ride 11.86 976 00:25:14 28.19 Km\h
27/06/2016 Visibile a tutti Monte Boglia 31.06 1292 02:30:28 12.38 Km\h
26/06/2016 Visibile a tutti Morning Ride 15 157 00:44:01 20.45 Km\h
26/06/2016 Visibile a tutti The whole Tamarrata 26.34 505 02:09:46 12.18 Km\h
25/06/2016 Visibile a tutti Lake & 2 thunderstorms 57.5 335 01:53:08 30.5 Km\h
24/06/2016 Visibile a tutti Round 2 30.79 722 01:49:32 16.87 Km\h
24/06/2016 Visibile a tutti SRAM ride 36.25 803 01:36:39 22.5 Km\h
23/06/2016 Visibile a tutti The whole tamarrata 18.12 376 01:37:25 11.16 Km\h
23/06/2016 Visibile a tutti Morning Ride 8.16 109 00:25:50 18.96 Km\h
22/06/2016 Visibile a tutti Albula 52.74 1515 03:49:33 13.79 Km\h
21/06/2016 Visibile a tutti Afternoon Ride 5.16 157 00:25:15 12.27 Km\h
20/06/2016 Visibile a tutti Afternoon Ride 9.02 129 00:41:13 13.12 Km\h
20/06/2016 Visibile a tutti Lunch Ride 6.17 130 00:32:40 11.34 Km\h
20/06/2016 Visibile a tutti Afternoon Ride 5.23 160 00:26:32 11.82 Km\h
20/06/2016 Visibile a tutti Afternoon Ride 9.02 129 00:41:13 13.12 Km\h
20/06/2016 Visibile a tutti Lunch Ride 6.17 130 00:32:40 11.34 Km\h
19/06/2016 Visibile a tutti La ravanata di Mesocco 15.34 821 01:36:37 9.53 Km\h
18/06/2016 Visibile a tutti San Lucio 59.07 1617 03:55:07 15.07 Km\h
17/06/2016 Visibile a tutti After the storm is before the storm 36.21 832 01:34:39 22.95 Km\h
15/06/2016 Visibile a tutti Eagle tripletta 45.94 1433 03:25:40 13.4 Km\h
13/06/2016 Visibile a tutti The whole tamarrata 18.04 386 01:34:38 11.44 Km\h
13/06/2016 Visibile a tutti Lunch Ride 8.96 117 00:28:56 18.58 Km\h
09/06/2016 Visibile a tutti Valle di muuuuggio 34.84 1157 02:25:47 14.34 Km\h
07/06/2016 Visibile a tutti Pavé with Tom Boonen 97.29 443 03:35:13 27.12 Km\h
06/06/2016 Visibile a tutti Belgian Summer 64.51 208 02:27:22 26.26 Km\h
05/06/2016 Visibile a tutti Cobblestone awaits 30.82 756 01:45:58 17.45 Km\h
03/06/2016 Visibile a tutti Chi non pedala in compagnia o è un ladro o è una spia! 48.73 1331 03:10:26 15.35 Km\h
02/06/2016 Visibile a tutti Cima di Medeglia 17.48 756 01:26:13 12.16 Km\h
01/06/2016 Visibile a tutti Crocione 37.77 1258 02:42:42 13.93 Km\h
30/05/2016 Visibile a tutti Collina d'oro loops 33.97 957 02:11:45 15.47 Km\h
27/05/2016 Visibile a tutti Valcolla 44.24 998 01:53:35 23.37 Km\h
26/05/2016 Visibile a tutti Sunset Crocione 18.96 865 01:30:01 12.64 Km\h
26/05/2016 Visibile a tutti Loops with the kids 5.6 92 00:41:47 8.04 Km\h
25/05/2016 Visibile a tutti Crocione+ Condra 24.12 985 01:52:41 12.84 Km\h
24/05/2016 Visibile a tutti San Lucio 58.6 1605 03:56:52 14.84 Km\h
22/05/2016 Visibile a tutti Malcantone 29.09 902 01:24:10 20.74 Km\h
21/05/2016 Visibile a tutti Summer! 33.53 835 02:00:32 16.69 Km\h
20/05/2016 Visibile a tutti Alpe di Neggia + Malcantone 106.76 2595 04:48:39 22.19 Km\h
18/05/2016 Visibile a tutti Tip tap Valcolla 44.56 1035 02:03:23 21.67 Km\h
17/05/2016 Visibile a tutti Don't do this 32.4 1060 02:45:25 11.75 Km\h
16/05/2016 Visibile a tutti 8 Bar 49.91 1570 03:18:35 15.08 Km\h
15/05/2016 Visibile a tutti Collina d'Oro con Axel 17.26 476 01:39:13 10.44 Km\h
14/05/2016 Visibile a tutti Malcantone 29.57 907 01:23:39 21.21 Km\h
13/05/2016 Visibile a tutti 8 Bar + 60.88 2104 04:20:58 14 Km\h
12/05/2016 Visibile a tutti Rain 37.78 1022 01:40:30 22.56 Km\h
10/05/2016 Visibile a tutti Wet 17.47 494 00:46:59 22.31 Km\h
10/05/2016 Visibile a tutti Garmin doesn't like it wet 18.98 269 01:02:33 18.2 Km\h
08/05/2016 Visibile a tutti Afternoon Ride 31.01 755 01:42:21 18.18 Km\h
07/05/2016 Visibile a tutti Malcantone 29.08 913 01:21:23 21.44 Km\h
06/05/2016 Visibile a tutti San Lucio 60.12 1798 03:59:13 15.08 Km\h
04/05/2016 Visibile a tutti Monti di Brena 23.63 1009 01:58:12 11.99 Km\h
03/05/2016 Visibile a tutti Malcantone 26.07 821 01:44:58 14.9 Km\h
02/05/2016 Visibile a tutti Valcolla 41.05 980 01:59:59 20.53 Km\h
30/04/2016 Visibile a tutti Fobia + Tremalzo 77.64 2562 05:50:29 13.29 Km\h
29/04/2016 Visibile a tutti Formula ride 8.28 258 00:41:30 11.97 Km\h
28/04/2016 Visibile a tutti Obbiettivo aperitivo 22.86 357 01:30:09 15.22 Km\h
28/04/2016 Visibile a tutti Riding Fontana's bike 2.6 96 00:15:54 9.81 Km\h
28/04/2016 Visibile a tutti Cannondale Scalpel Si 13.36 459 01:07:45 11.83 Km\h
27/04/2016 Visibile a tutti eTap 36.36 880 01:37:09 22.46 Km\h
26/04/2016 Visibile a tutti Crocione freddo 18.65 913 01:31:26 12.24 Km\h
25/04/2016 Visibile a tutti Windy Cape Fear 30.75 785 01:44:00 17.74 Km\h
22/04/2016 Visibile a tutti Malcantone 29.31 930 01:26:35 20.31 Km\h
21/04/2016 Visibile a tutti La Bassa 38.66 1353 03:08:18 12.32 Km\h
20/04/2016 Visibile a tutti San Lucio 58.68 1632 03:55:56 14.92 Km\h
18/04/2016 Visibile a tutti Giro del monte (asciutto) RR 28.75 337 01:13:48 23.38 Km\h
17/04/2016 Visibile a tutti Garda MTB Marathon 56.9 1964 03:17:51 17.26 Km\h
16/04/2016 Visibile a tutti Race ready 20.05 357 01:08:02 17.69 Km\h
14/04/2016 Visibile a tutti Crocione 18.72 891 01:37:05 11.57 Km\h
12/04/2016 Visibile a tutti Lake 47.2 1184 02:40:21 17.66 Km\h
11/04/2016 Visibile a tutti 8 Bar special edition 36.14 1450 02:55:41 12.34 Km\h
08/04/2016 Visibile a tutti No rain 30.94 780 01:46:03 17.51 Km\h
07/04/2016 Visibile a tutti Fox Town Tour 33.38 1188 02:37:48 12.69 Km\h
06/04/2016 Visibile a tutti Giron 61.29 2215 04:44:55 12.91 Km\h
05/04/2016 Visibile a tutti Giret 36.1 885 01:33:35 23.15 Km\h
04/04/2016 Visibile a tutti The ski season is over 30.99 778 01:47:06 17.36 Km\h
24/03/2016 Visibile a tutti Morning Ride 27.12 942 01:18:45 20.67 Km\h
23/03/2016 Visibile a tutti Windy 31.01 777 01:52:25 16.55 Km\h
22/03/2016 Visibile a tutti Crocione 46.05 1655 03:09:49 14.55 Km\h
21/03/2016 Visibile a tutti XC rocket 30.59 770 01:51:01 16.53 Km\h
19/03/2016 Visibile a tutti 44 36.77 1205 02:26:26 15.07 Km\h
18/03/2016 Visibile a tutti Spring is back 31.18 873 02:02:44 15.24 Km\h
17/03/2016 Visibile a tutti Valcolla, sempre invernale 43.96 994 01:57:23 22.47 Km\h
16/03/2016 Visibile a tutti Afternoon Ride 31.35 798 01:58:02 15.94 Km\h
15/03/2016 Visibile a tutti Lac su e giù 69.55 1508 03:00:59 23.06 Km\h
14/03/2016 Visibile a tutti Afternoon Ride 36.18 902 01:36:35 22.48 Km\h
11/03/2016 Visibile a tutti Casa di Mario 29.32 953 01:29:26 19.67 Km\h
10/03/2016 Visibile a tutti Valcolla invernale 43.08 1057 01:50:12 23.45 Km\h
09/03/2016 Visibile a tutti Snowy Cademario 29.31 963 01:27:22 20.13 Km\h
08/03/2016 Visibile a tutti Melting snow 36.17 907 01:41:15 21.44 Km\h
07/03/2016 Visibile a tutti demolished after 3 hours of snowshoeing 8.42 496 02:39:58 3.16 Km\h
04/03/2016 Visibile a tutti Morning Ride 25.71 382 01:37:10 15.88 Km\h
03/03/2016 Visibile a tutti Lunch Ride 12.98 260 01:04:02 12.17 Km\h
02/03/2016 Visibile a tutti Morning Ride 16.41 286 01:13:42 13.36 Km\h
02/03/2016 Visibile a tutti Lunch Ride 20.96 303 01:21:31 15.43 Km\h
02/03/2016 Visibile a tutti Afternoon Ride 14.03 336 01:07:54 12.4 Km\h
01/03/2016 Visibile a tutti Afternoon Ride 16.96 381 01:18:17 13 Km\h
01/03/2016 Visibile a tutti Afternoon Ride 13.42 334 00:59:12 13.6 Km\h
01/03/2016 Visibile a tutti Lunch Ride 14.25 336 01:07:05 12.75 Km\h
25/02/2016 Visibile a tutti Afternoon Ride 44.39 1080 02:02:41 21.71 Km\h
24/02/2016 Visibile a tutti Primavera o no? 32.31 840 02:02:17 15.85 Km\h
23/02/2016 Visibile a tutti Doppietta 46.54 1395 03:09:44 14.72 Km\h
22/02/2016 Visibile a tutti Front 47.7 1257 02:50:07 16.82 Km\h
20/02/2016 Visibile a tutti Valcolla 47.83 1081 01:58:35 24.2 Km\h
19/02/2016 Visibile a tutti Afternoon Ride 22.93 1064 01:53:47 12.09 Km\h
18/02/2016 Visibile a tutti Front 27.4 557 01:29:14 18.42 Km\h
18/02/2016 Visibile a tutti Darkness 8.15 383 00:42:37 11.48 Km\h
16/02/2016 Visibile a tutti Grigiume 36.34 902 01:38:02 22.24 Km\h
15/02/2016 Visibile a tutti Aria di primavera 27.33 541 01:30:51 18.05 Km\h
05/02/2016 Visibile a tutti Val Klebstoff 43.81 1027 01:53:56 23.07 Km\h
04/02/2016 Visibile a tutti Windy 23.11 1081 01:58:19 11.72 Km\h
02/02/2016 Visibile a tutti Valle di Muggio 41.14 1325 02:52:33 14.31 Km\h
01/02/2016 Visibile a tutti Cruciun 18.64 878 01:37:11 11.51 Km\h
29/01/2016 Visibile a tutti Gravity 8.96 7 00:12:57 41.5 Km\h
28/01/2016 Visibile a tutti Arbostora 27.51 551 01:33:17 17.69 Km\h
27/01/2016 Visibile a tutti vid 28.02 737 01:22:30 20.38 Km\h
26/01/2016 Visibile a tutti Springtime 39.22 1144 02:42:24 14.49 Km\h
25/01/2016 Visibile a tutti Doppietta 24.86 1005 02:00:03 12.42 Km\h
24/01/2016 Visibile a tutti giro del monte post raffreddore 30.47 525 01:15:06 24.34 Km\h
19/01/2016 Visibile a tutti Vid 8.13 352 00:50:24 9.67 Km\h
15/01/2016 Visibile a tutti Carona + 36.7 918 01:38:05 22.45 Km\h
14/01/2016 Visibile a tutti Bigorio 13.07 550 01:17:22 10.14 Km\h
13/01/2016 Visibile a tutti Tira sassi al cane di m...! 40.99 1217 02:41:28 15.23 Km\h
11/01/2016 Visibile a tutti Afternoon Ride 17.94 177 00:40:01 26.89 Km\h
11/01/2016 Visibile a tutti Carona 17.1 542 00:48:32 21.13 Km\h
08/01/2016 Visibile a tutti Valcolla 47.89 1203 02:14:13 21.41 Km\h
07/01/2016 Visibile a tutti Crocione invernale 14 613 01:10:56 11.84 Km\h
06/01/2016 Visibile a tutti Fresco 36.1 919 01:41:22 21.37 Km\h
04/01/2016 Visibile a tutti Snowy ride 13.44 616 01:14:32 10.82 Km\h
03/01/2016 Visibile a tutti Carona 36.6 929 01:44:27 21.03 Km\h
02/01/2016 Visibile a tutti Purify 2 15.16 32 00:46:14 19.67 Km\h
02/01/2016 Visibile a tutti Purify 1 13.44 226 00:52:34 15.34 Km\h
27/12/2015 Visibile a tutti Brè e valcolla 61.26 1633 02:48:15 21.85 Km\h
26/12/2015 Visibile a tutti Carona Brè 56.12 1369 02:32:24 22.09 Km\h
23/12/2015 Visibile a tutti Afternoon Ride 19.03 316 01:10:34 16.18 Km\h
23/12/2015 Visibile a tutti Afternoon Ride 10.53 843 01:04:41 9.76 Km\h
22/12/2015 Visibile a tutti Attenti al lupo 59.4 1680 04:11:47 14.15 Km\h
21/12/2015 Visibile a tutti 8 bar 31.8 1339 02:32:36 12.5 Km\h
19/12/2015 Visibile a tutti Afternoon Ride 29.01 926 01:29:08 19.53 Km\h
18/12/2015 Visibile a tutti Tripletta al Bar 71.6 2378 04:57:13 14.45 Km\h
17/12/2015 Visibile a tutti Piandanazzo 29.5 1172 02:05:12 14.14 Km\h
16/12/2015 Visibile a tutti Torricella 29.55 910 02:17:19 12.91 Km\h
15/12/2015 Visibile a tutti San Lucio Night Ride 57.65 1522 03:59:53 14.42 Km\h
14/12/2015 Visibile a tutti Sunset ride 24.5 1119 02:05:30 11.71 Km\h
13/12/2015 Visibile a tutti Morning Ride 31.95 854 02:02:25 15.66 Km\h
11/12/2015 Visibile a tutti Morning Ride 7.9 332 00:48:32 9.77 Km\h
10/12/2015 Visibile a tutti Cruciun 18.82 906 01:38:12 11.5 Km\h
02/12/2015 Visibile a tutti Piandanazzo 48.76 1417 03:12:19 15.21 Km\h
01/12/2015 Visibile a tutti San Lucio 57.51 1521 04:09:45 13.82 Km\h
30/11/2015 Visibile a tutti Afternoon Ride 34.4 698 01:32:23 22.34 Km\h
27/11/2015 Visibile a tutti Piandanazzo perfect weather 48.09 1456 03:11:58 15.03 Km\h
26/11/2015 Visibile a tutti Windy 21.56 615 01:21:39 15.84 Km\h
24/11/2015 Visibile a tutti Afternoon Ride 34.78 715 01:34:26 22.1 Km\h
23/11/2015 Visibile a tutti Cruciun gelato 18.56 922 01:39:25 11.2 Km\h
23/11/2015 Visibile a tutti Cruciun gelato 18.56 922 01:39:25 11.2 Km\h
20/11/2015 Visibile a tutti Cruciun 18.8 898 01:32:36 12.18 Km\h
19/11/2015 Visibile a tutti Above the clouds 14.29 476 00:57:58 14.79 Km\h
18/11/2015 Visibile a tutti no leaves left on the trees 27.38 559 01:37:10 16.91 Km\h
17/11/2015 Visibile a tutti San Lucio relax 59.13 1659 04:02:42 14.62 Km\h
16/11/2015 Visibile a tutti Cruciun 18.6 879 01:30:29 12.33 Km\h
13/11/2015 Visibile a tutti San Lucio 24.89 818 01:53:58 13.11 Km\h
11/11/2015 Visibile a tutti Signora 13.77 638 01:16:53 10.75 Km\h
10/11/2015 Visibile a tutti Insane ride on sick bike 54.61 1547 03:40:52 14.84 Km\h
10/11/2015 Visibile a tutti Morning Ride 4.61 59 00:12:56 21.38 Km\h
08/11/2015 Visibile a tutti Kids' ride 11.22 316 01:07:46 9.93 Km\h
07/11/2015 Visibile a tutti Cruciun 37.13 1132 02:23:51 15.49 Km\h
06/11/2015 Visibile a tutti San Lucio 59.25 1632 04:03:10 14.62 Km\h
05/11/2015 Visibile a tutti Morning Ride 18.79 889 01:40:35 11.21 Km\h
04/11/2015 Visibile a tutti Morning Ride 27.64 552 01:29:55 18.44 Km\h
03/11/2015 Visibile a tutti Crociun 18.66 891 01:38:55 11.32 Km\h
02/11/2015 Visibile a tutti Test 46.28 870 02:03:45 22.44 Km\h
31/10/2015 Visibile a tutti Garmin bug with live segments 9.42 175 00:30:19 18.65 Km\h
27/10/2015 Visibile a tutti on foot 3.35 11 00:22:20 8.99 Km\h
25/10/2015 Visibile a tutti Axel 12.55 256 01:22:25 9.14 Km\h
24/10/2015 Visibile a tutti Steel 27.46 543 01:29:20 18.44 Km\h
23/10/2015 Visibile a tutti San Lucio monte Bar 56.83 1506 03:50:44 14.78 Km\h
21/10/2015 Visibile a tutti Bormio Spritztour/2 18.23 605 01:20:20 13.62 Km\h
20/10/2015 Visibile a tutti Bormio spritz 14.82 462 01:04:18 13.83 Km\h
19/10/2015 Visibile a tutti Lac 27.49 552 01:27:55 18.76 Km\h
17/10/2015 Visibile a tutti Morning Ride 30.74 841 01:53:18 16.28 Km\h
16/10/2015 Visibile a tutti Steel ride 27.44 548 01:27:22 18.84 Km\h
14/10/2015 Visibile a tutti Evil Bar 42.21 1277 02:48:34 15.03 Km\h
13/10/2015 Visibile a tutti wet woods 27.39 411 01:32:49 17.7 Km\h
12/10/2015 Visibile a tutti Sigirino 18.73 380 01:32:56 12.09 Km\h
10/10/2015 Visibile a tutti veloclub monte tamaro con i bocia 22.19 357 01:42:59 12.93 Km\h
09/10/2015 Visibile a tutti church 27.36 548 01:30:58 18.05 Km\h
08/10/2015 Visibile a tutti 2 cademario is better than one 29.67 881 02:00:02 14.83 Km\h
08/10/2015 Visibile a tutti Cademario pecorino 25.39 702 01:15:01 20.31 Km\h
06/10/2015 Visibile a tutti Afternoon Ride 27.4 547 01:29:33 18.36 Km\h
05/10/2015 Visibile a tutti Bar 18.76 890 01:33:15 12.07 Km\h
04/10/2015 Visibile a tutti Right after the rain 27.32 549 01:30:32 18.1 Km\h
02/10/2015 Visibile a tutti Morning Ride 8.94 116 00:29:28 18.2 Km\h
02/10/2015 Visibile a tutti The whole tamarrata 18.28 389 01:36:33 11.36 Km\h
30/09/2015 Visibile a tutti Monte Boglia/2 22.71 1056 02:18:33 9.83 Km\h
30/09/2015 Visibile a tutti Monte Boglia/1 12.51 436 00:55:11 13.6 Km\h
28/09/2015 Visibile a tutti SC CH 18.64 890 01:39:31 11.24 Km\h Altre bici test
25/09/2015 Visibile a tutti Alpe Gesero 44.24 1761 04:13:09 10.48 Km\h
24/09/2015 Visibile a tutti Windy 13.82 593 01:12:33 11.43 Km\h
23/09/2015 Visibile a tutti Afterstorm ride 27.27 545 01:34:54 17.24 Km\h
19/09/2015 Visibile a tutti Lunch Ride 18.42 385 01:34:16 11.72 Km\h
19/09/2015 Visibile a tutti Morning Ride 8.11 109 00:27:11 17.9 Km\h
17/09/2015 Visibile a tutti Tropical thunder 27.66 526 01:28:44 18.7 Km\h
15/09/2015 Visibile a tutti Afternoon Ride 34.61 655 01:25:22 24.33 Km\h
14/09/2015 Visibile a tutti Afternoon Ride 27.27 537 01:27:30 18.7 Km\h
12/09/2015 Visibile a tutti Afternoon Ride 9.14 223 00:50:07 10.94 Km\h
11/09/2015 Visibile a tutti I hate these "morninglunchdinner" ride titles!!!!!!!! 27.4 551 01:26:10 19.08 Km\h
09/09/2015 Visibile a tutti Bormio 3000 33.11 242 02:26:02 13.6 Km\h Santacruz 5010 C
08/09/2015 Visibile a tutti Pedenolo 26.62 499 02:07:11 12.56 Km\h
07/09/2015 Visibile a tutti Best riding month = September 18.67 881 01:29:06 12.57 Km\h
05/09/2015 Visibile a tutti Baretto 32.53 965 02:06:12 15.46 Km\h
03/09/2015 Visibile a tutti Afternoon Ride 23.7 79 00:45:21 31.36 Km\h
03/09/2015 Visibile a tutti Afternoon Ride 9.68 180 00:28:12 20.6 Km\h
03/09/2015 Visibile a tutti Barking 14.27 1070 01:03:27 13.49 Km\h
02/09/2015 Visibile a tutti Minicrocione ready for launch 31.93 807 01:48:29 17.66 Km\h
01/09/2015 Visibile a tutti Morning Latte 27.23 527 01:28:00 18.56 Km\h
31/08/2015 Visibile a tutti Tamaro 18.84 412 01:31:31 12.35 Km\h
30/08/2015 Visibile a tutti After Eurobike ride. Ahhhh 37.17 1099 02:21:48 15.73 Km\h
26/08/2015 Visibile a tutti Eurobike 1 34.62 246 01:12:51 28.51 Km\h
25/08/2015 Visibile a tutti Morning Ride 28.43 547 01:31:59 18.54 Km\h
23/08/2015 Visibile a tutti Ride interruptus 15.19 359 00:51:42 17.63 Km\h
21/08/2015 Visibile a tutti Lago del monte 45.63 1337 03:24:25 13.39 Km\h
20/08/2015 Visibile a tutti Afternoon Ride 6.19 15 00:20:53 17.79 Km\h
20/08/2015 Visibile a tutti Afternoon Ride 4.24 0 00:12:48 19.88 Km\h
20/08/2015 Visibile a tutti Afternoon Ride 4.34 0 00:13:12 19.72 Km\h
20/08/2015 Visibile a tutti Afternoon Ride 3.19 0 00:09:58 19.19 Km\h
20/08/2015 Visibile a tutti Madonna delle Rezze 10.74 174 00:55:02 11.71 Km\h
20/08/2015 Visibile a tutti Lunch Ride 12.67 18 00:43:38 17.42 Km\h
19/08/2015 Visibile a tutti 08/19/2015 Livigno, Lombardia, Italy 33.04 645 01:55:30 17.17 Km\h
18/08/2015 Visibile a tutti 08/18/2015 Lombardia, Italy 10.73 16 00:39:11 16.43 Km\h
18/08/2015 Visibile a tutti 08/18/2015 Lombardia, Italy 7.05 1 00:21:35 19.61 Km\h
18/08/2015 Visibile a tutti 08/18/2015 Lombardia, Italy 4.27 0 00:14:27 17.73 Km\h
18/08/2015 Visibile a tutti LivignoFresh 26.66 831 01:47:22 14.9 Km\h
18/08/2015 Visibile a tutti 08/18/2015 Lombardia, Italy 6.28 16 00:21:53 17.21 Km\h
16/08/2015 Visibile a tutti 08/16/2015 Livigno, Lombardia, Italy 18.2 569 01:16:22 14.3 Km\h
15/08/2015 Visibile a tutti 08/15/2015 Lombardia, Italy 14.02 63 00:39:46 21.15 Km\h
15/08/2015 Visibile a tutti 08/15/2015 Lombardia, Italy 6.58 16 00:15:42 25.14 Km\h
15/08/2015 Visibile a tutti 08/15/2015 Lombardia, Italy 6.46 16 00:14:12 27.31 Km\h
14/08/2015 Visibile a tutti 08/14/2015 Lombardia, Italy 10.58 40 00:32:49 19.35 Km\h
14/08/2015 Visibile a tutti 08/14/2015 Lombardia, Italy 9.32 41 00:28:16 19.79 Km\h
14/08/2015 Visibile a tutti 08/14/2015 Lombardia, Italy 10.84 23 00:31:29 20.66 Km\h
13/08/2015 Visibile a tutti livigno pedenolo piz umbrail 87.17 2782 07:16:40 11.98 Km\h Ibis Ripley
11/08/2015 Visibile a tutti Alpisella Trela 33.62 908 02:10:46 15.43 Km\h Ibis Ripley
10/08/2015 Visibile a tutti 08/10/2015 Lombardia, Italy 10.64 42 00:28:04 22.75 Km\h
10/08/2015 Visibile a tutti 08/10/2015 Lombardia, Italy 7.33 7 00:20:30 21.46 Km\h
10/08/2015 Visibile a tutti 08/10/2015 Lombardia, Italy 9.53 12 00:37:44 15.15 Km\h
10/08/2015 Visibile a tutti 08/10/2015 Lombardia, Italy 4.36 0 00:15:46 16.58 Km\h
10/08/2015 Visibile a tutti 08/10/2015 Lombardia, Italy 10.82 20 00:42:39 15.22 Km\h
09/08/2015 Visibile a tutti New trails 47.29 1158 03:20:44 14.13 Km\h Ibis Ripley
07/08/2015 Visibile a tutti The whole Tamarrata 26.53 480 02:03:44 12.86 Km\h Focus Sam C
06/08/2015 Visibile a tutti by heat, rain, snow. All year trail 37.11 1075 02:19:55 15.91 Km\h Santacruz 5010 C
05/08/2015 Visibile a tutti Back in the mountains 27.19 520 01:26:45 18.81 Km\h Santacruz 5010 C
04/08/2015 Visibile a tutti MTB-News ride 53.58 43 02:08:14 25.07 Km\h
02/08/2015 Visibile a tutti 08/02/2015 Lido di Jesolo, Veneto, Italy 42.2 31 01:26:30 29.27 Km\h
01/08/2015 Visibile a tutti Gravel grind 41.58 68 01:21:55 30.45 Km\h
30/07/2015 Visibile a tutti Piave windy 45.62 94 01:43:01 26.57 Km\h
29/07/2015 Visibile a tutti More gravel 41.55 53 01:28:33 28.15 Km\h
28/07/2015 Visibile a tutti Piave 45.79 85 01:38:36 27.86 Km\h Altre bici test
26/07/2015 Visibile a tutti Tora Tora 41.97 87 01:25:38 29.4 Km\h Altre bici test
25/07/2015 Visibile a tutti Piave shred 45.76 79 01:33:24 29.4 Km\h Altre bici test
23/07/2015 Visibile a tutti Hot gravel 41.66 56 01:27:16 28.64 Km\h Altre bici test
22/07/2015 Visibile a tutti ride this until it's not underwater for the oceans rise 45.98 68 01:30:57 30.33 Km\h
21/07/2015 Visibile a tutti Piave 45.54 35 01:38:32 27.73 Km\h Altre bici test
20/07/2015 Visibile a tutti Laguna Gravel/4 41.4 46 01:28:50 27.96 Km\h Altre bici test
19/07/2015 Visibile a tutti Gravel = flat tires 30.22 29 01:09:31 26.08 Km\h Altre bici test
18/07/2015 Visibile a tutti Laguna gravel/2 36.26 38 01:17:48 27.97 Km\h Altre bici test
17/07/2015 Visibile a tutti Laguna Gravel/1 41.54 24 01:25:04 29.3 Km\h Altre bici test
13/07/2015 Visibile a tutti Bachalp 36.33 638 02:31:08 14.42 Km\h
12/07/2015 Visibile a tutti 07/12/2015 Aosta, Italy 16.52 190 01:01:41 16.07 Km\h
11/07/2015 Visibile a tutti Col Chavannes 41.32 970 02:53:42 14.27 Km\h Altre bici test
10/07/2015 Visibile a tutti Passo Invergneux 37.22 1461 03:30:44 10.6 Km\h Altre bici test
09/07/2015 Visibile a tutti The whole Tamarrata 27.52 493 02:08:06 12.89 Km\h Altre bici test
07/07/2015 Visibile a tutti Passo del Sole repeat 24.67 512 02:09:47 11.4 Km\h GT Sanction 27.5
06/07/2015 Visibile a tutti 07/06/2015 Lugano, Ticino, Switzerland 27.47 531 01:30:06 18.29 Km\h Cube Elite C68
05/07/2015 Visibile a tutti Discovery mode on 29.56 1043 03:39:38 8.08 Km\h GT Sanction 27.5
04/07/2015 Visibile a tutti Passo del Sole - Procore sweetness 24.62 510 02:10:19 11.34 Km\h GT Sanction 27.5
03/07/2015 Visibile a tutti Very hot whole tamarrata 18.34 363 01:37:36 11.28 Km\h GT Sanction 27.5
03/07/2015 Visibile a tutti 07/03/2015 Torricella-Taverne, Ticino, Switzerland 9.67 130 00:31:46 18.26 Km\h GT Sanction 27.5
02/07/2015 Visibile a tutti 07/02/2015 Bedretto, Ticino, Switzerland 29.72 1210 03:30:30 8.47 Km\h
29/06/2015 Visibile a tutti 34 19.51 800 02:11:41 8.89 Km\h Altre bici test
28/06/2015 Visibile a tutti Go to Cortina and get an icecream 55.88 575 02:41:09 20.81 Km\h Cube Elite C68
27/06/2015 Visibile a tutti Sella Ronda Hero 86.76 3690 06:23:11 13.58 Km\h Cube Elite C68
26/06/2015 Visibile a tutti 06/26/2015 Campitello di Fassa, Trentino-Alto Adige, Italy 24.05 249 01:09:41 20.7 Km\h Cube Elite C68
25/06/2015 Visibile a tutti 06/25/2015 Campitello di Fassa, Trentino-Alto Adige, Italy 24.74 255 01:16:55 19.3 Km\h Cube Elite C68
24/06/2015 Visibile a tutti 06/24/2015 Trentino-Alto Adige, Italy 48.99 1612 03:47:39 12.91 Km\h Cube Elite C68
23/06/2015 Visibile a tutti 06/23/2015 Campitello di Fassa, Trentino-Alto Adige, Italy 53.98 1859 03:39:05 14.78 Km\h Cube Elite C68
21/06/2015 Visibile a tutti Crocione 37.26 1102 02:10:58 17.07 Km\h Cube Elite C68
19/06/2015 Visibile a tutti The Whole Tamarrata 26.49 494 01:59:09 13.34 Km\h
18/06/2015 Visibile a tutti The Whole Tamarrata 18.25 380 01:34:11 11.62 Km\h Altre bici test
18/06/2015 Visibile a tutti 06/18/2015 Torricella-Taverne, Ticino, Switzerland 8.01 111 00:25:04 19.17 Km\h Altre bici test
16/06/2015 Visibile a tutti 06/16/2015 Toscana, Italy 31.89 678 02:01:49 15.71 Km\h Altre bici test
15/06/2015 Visibile a tutti 06/15/2015 Toscana, Italy 17.15 299 01:03:38 16.17 Km\h Altre bici test
15/06/2015 Visibile a tutti 06/15/2015 Toscana, Italy 14.5 386 01:03:39 13.67 Km\h Altre bici test
13/06/2015 Visibile a tutti Garmin does not like Saturdays thunderstorm 30.01 588 01:26:31 20.81 Km\h Altre bici test
12/06/2015 Visibile a tutti 06/12/2015 Lugano, Ticino, Switzerland 37.01 848 01:43:33 21.44 Km\h Altre bici test
11/06/2015 Visibile a tutti Ride a hardtail and smash all KOMs 60.39 1769 04:00:21 15.08 Km\h Cube Elite C68
10/06/2015 Visibile a tutti 06/10/2015 Lugano, Ticino, Switzerland 27.3 514 01:24:51 19.3 Km\h
09/06/2015 Visibile a tutti Bitume 41.46 885 01:48:30 22.93 Km\h Altre bici test
08/06/2015 Visibile a tutti Mont Bar 60.71 1798 04:02:44 15.01 Km\h Santacruz 5010 C
06/06/2015 Visibile a tutti Stelvio thunderstorm 43.98 1477 02:09:23 20.39 Km\h Altre bici test
05/06/2015 Visibile a tutti 06/05/2015 Lugano, Ticino, Switzerland 28.48 305 01:11:06 24.03 Km\h Altre bici test
04/06/2015 Visibile a tutti crocione bollente 37.29 1114 02:16:37 16.38 Km\h Santacruz 5010 C
03/06/2015 Visibile a tutti 29+ 30.95 753 01:58:42 15.64 Km\h Altre bici test
02/06/2015 Visibile a tutti Superenduro B-road interruptus 55.66 893 02:14:36 24.81 Km\h
01/06/2015 Visibile a tutti 06/01/2015 Lugano, Ticino, Switzerland 27.45 561 01:30:29 18.2 Km\h Cube Elite C68
30/05/2015 Visibile a tutti 05/30/2015 Torricella-Taverne, Ticino, Switzerland 8.12 111 00:27:13 17.89 Km\h Altre bici test
30/05/2015 Visibile a tutti 05/30/2015 Rivera, Ticino, Switzerland 18.36 382 01:35:34 11.52 Km\h Altre bici test
29/05/2015 Visibile a tutti 05/29/2015 Lugano, Ticino, Switzerland 33.38 1063 01:39:33 20.12 Km\h
28/05/2015 Visibile a tutti Tamaro - Mezzovico 19.5 433 01:44:55 11.15 Km\h Altre bici test
27/05/2015 Visibile a tutti bar 50.36 1579 03:24:47 14.75 Km\h Santacruz 5010 C
26/05/2015 Visibile a tutti The whole tamarrata 18.64 384 01:40:55 11.08 Km\h GT Sanction 27.5
26/05/2015 Visibile a tutti 05/26/2015 Torricella-Taverne, Ticino, Switzerland 8.9 116 00:28:27 18.76 Km\h
26/05/2015 Visibile a tutti 05/26/2015 Rivera, Ticino, Switzerland 17.31 700 01:21:34 12.73 Km\h
24/05/2015 Visibile a tutti Crocione 37.87 1298 02:28:46 15.27 Km\h Santacruz 5010 C
23/05/2015 Visibile a tutti 05/23/2015 Lugano, Ticino, Switzerland 30.89 907 01:27:07 21.27 Km\h
22/05/2015 Visibile a tutti Enduroad 22.18 60 00:51:18 25.95 Km\h Altre bici test
22/05/2015 Visibile a tutti Boh 5.56 6 00:18:30 18.04 Km\h Altre bici test
21/05/2015 Visibile a tutti 05/21/2015 Montefranco, Trentino-Alto Adige, Italy 13.43 25 00:39:47 20.25 Km\h
21/05/2015 Visibile a tutti 05/21/2015 Trentino-Alto Adige, Italy 1.82 113 00:13:54 7.86 Km\h
18/05/2015 Visibile a tutti The whole tamarrata 26.83 531 02:14:57 11.93 Km\h Santacruz 5010 C
18/05/2015 Visibile a tutti Focaccia sulla via della funivia 20.02 252 01:03:03 19.05 Km\h Santacruz 5010 C
17/05/2015 Visibile a tutti Crocione 37.37 1145 02:28:34 15.09 Km\h Santacruz 5010 C
16/05/2015 Visibile a tutti 05/16/2015 Capriasca, Ticino, Switzerland 17.9 302 01:00:23 17.78 Km\h Cube Elite C68
16/05/2015 Visibile a tutti 2x20 MTB 15.47 702 00:51:30 18.02 Km\h Cube Elite C68
16/05/2015 Visibile a tutti 05/16/2015 Lugano, Ticino, Switzerland 9.84 188 00:28:30 20.71 Km\h Cube Elite C68
13/05/2015 Visibile a tutti 05/13/2015 Lugano, Ticino, Switzerland 57.79 418 01:55:43 29.96 Km\h Altre bici test
12/05/2015 Visibile a tutti 05/12/2015 Lugano, Ticino, Switzerland 31.45 785 01:46:44 17.68 Km\h Cube Elite C68
11/05/2015 Visibile a tutti 8 Bar 49.46 1542 03:01:54 16.31 Km\h Santacruz 5010 C
10/05/2015 Visibile a tutti Kids 12.69 216 01:20:30 9.46 Km\h Santacruz 5010 C
09/05/2015 Visibile a tutti Monti di Torricella 29.57 898 02:01:46 14.57 Km\h Santacruz 5010 C
07/05/2015 Visibile a tutti Girone Monte Bar 56.85 1595 03:36:23 15.76 Km\h Santacruz 5010 C
07/05/2015 Visibile a tutti Bis serale 13.85 582 01:15:09 11.05 Km\h Santacruz 5010 C
06/05/2015 Visibile a tutti 05/06/2015 Capriasca, Ticino, Switzerland 22.95 670 01:58:14 11.65 Km\h Santacruz 5010 C
05/05/2015 Visibile a tutti Minicrocione 32.05 844 01:49:08 17.62 Km\h Santacruz 5010 C
04/05/2015 Visibile a tutti 05/04/2015 Lugano, Ticino, Switzerland 28.97 314 01:07:52 25.61 Km\h Altre bici test
02/05/2015 Visibile a tutti Bike Marathon ronda extrema 89.65 3600 06:24:14 14 Km\h Cube Elite C68
01/05/2015 Visibile a tutti 05/01/2015 Trentino-Alto Adige, Italy 11.64 42 00:37:57 18.4 Km\h
01/05/2015 Visibile a tutti 05/01/2015 Riva del Garda, Trentino-Alto Adige, Italy 10.02 193 00:38:15 15.72 Km\h
28/04/2015 Visibile a tutti 04/28/2015 Lugano, Ticino, Switzerland 42.6 1134 02:25:15 17.6 Km\h Cube Elite C68
26/04/2015 Visibile a tutti Ritirata strategica dalla pioggia 8.17 106 00:29:45 16.48 Km\h Cube Elite C68
24/04/2015 Visibile a tutti Gola di Lago 34.59 949 02:08:52 16.11 Km\h Santacruz 5010 C
23/04/2015 Visibile a tutti Combattendo il jetlag 47.61 1541 03:04:50 15.45 Km\h Santacruz 5010 C
21/04/2015 Visibile a tutti 04/21/2015 Aptos, California 29.55 610 01:58:09 15.01 Km\h
20/04/2015 Visibile a tutti 04/20/2015 Los Gatos, California 22.39 607 01:38:27 13.64 Km\h Altre bici test
19/04/2015 Visibile a tutti 04/19/2015 Santa Cruz, California 10.21 170 00:50:39 12.09 Km\h Altre bici test
18/04/2015 Visibile a tutti 04/18/2015 Aptos, California 64.16 1801 04:43:54 13.56 Km\h Altre bici test
15/04/2015 Visibile a tutti 04/15/2015 Santa Cruz, California 20.23 578 01:35:05 12.77 Km\h
14/04/2015 Visibile a tutti Budda trail 50.68 760 03:07:00 16.26 Km\h Altre bici test
12/04/2015 Visibile a tutti Crocione 37.36 1136 02:21:31 15.84 Km\h Santacruz 5010 C
11/04/2015 Visibile a tutti 04/11/2015 Lugano, Ticino, Switzerland 27.19 560 01:20:07 20.36 Km\h
08/04/2015 Visibile a tutti 04/08/2015 Lombardia, Italy 29.23 444 01:04:42 27.1 Km\h Altre bici test
05/04/2015 Visibile a tutti 04/05/2015 Lombardia, Italy 31.09 883 01:25:13 21.89 Km\h Altre bici test
03/04/2015 Visibile a tutti Minicrocione pump 33.07 864 01:52:49 17.59 Km\h Cube Elite C68
02/04/2015 Visibile a tutti 34 31.98 855 01:54:45 16.72 Km\h Santacruz 5010 C
01/04/2015 Visibile a tutti keine Gnade für die Wade 30.59 809 01:39:44 18.4 Km\h Cube Elite C68
31/03/2015 Visibile a tutti Summertime on S5 44.04 923 01:57:53 22.42 Km\h Altre bici test
30/03/2015 Visibile a tutti Minicrocione 34.44 1012 02:03:53 16.68 Km\h Cube Elite C68
27/03/2015 Visibile a tutti Crocione invernale con Fox 26.36 881 02:05:30 12.6 Km\h Santacruz 5010 C
26/03/2015 Visibile a tutti Arbostora 30.19 696 01:37:19 18.61 Km\h Cube Elite C68
25/03/2015 Visibile a tutti Crocione con qualche nevaio 18.69 916 01:42:39 10.92 Km\h Ibis Ripley
24/03/2015 Visibile a tutti intervallo asciutto 25.56 379 01:21:25 18.84 Km\h Santacruz 5010 C
24/03/2015 Visibile a tutti **** di garmin 1.43 27 00:05:26 15.85 Km\h Santacruz 5010 C
23/03/2015 Visibile a tutti Arbostora superpulita 31.02 704 01:36:58 19.2 Km\h Cube Elite C68
18/03/2015 Visibile a tutti Arbostora superpulita 28.25 564 01:40:11 16.92 Km\h Santacruz 5010 C
17/03/2015 Visibile a tutti Bitumata 42.68 1152 01:55:10 22.23 Km\h Altre bici test
16/03/2015 Visibile a tutti AS 6.17 53 00:26:23 14.03 Km\h Santacruz 5010 C
14/03/2015 Visibile a tutti Nevischio in alto 32.72 873 01:59:20 16.45 Km\h Cube Elite C68
13/03/2015 Visibile a tutti Bitume pecorino 51.85 1234 02:27:55 21.03 Km\h Altre bici test
12/03/2015 Visibile a tutti Relax 37.03 993 02:20:27 15.82 Km\h Santacruz 5010 C
11/03/2015 Visibile a tutti bitume primaverile 49.1 1107 02:05:45 23.43 Km\h Altre bici test
10/03/2015 Visibile a tutti Crocione invernale 39.96 1177 02:23:56 16.66 Km\h Cube Elite C68
09/03/2015 Visibile a tutti XTR 1x11 prima prova 26.02 618 01:44:02 15.01 Km\h Santacruz 5010 C
08/03/2015 Visibile a tutti bitume primaverile 36.4 706 01:28:04 24.8 Km\h Altre bici test
06/03/2015 Visibile a tutti Bitume pecorino 59.83 1085 02:38:59 22.58 Km\h Altre bici test
05/03/2015 Visibile a tutti Bitume ventoso 61.38 523 02:12:50 27.73 Km\h Altre bici test
03/03/2015 Visibile a tutti Training 1 (live) 31.92 809 02:30:29 12.73 Km\h Santacruz 5010 C
02/03/2015 Visibile a tutti Bitumiera 42.01 905 01:46:43 23.62 Km\h Altre bici test
28/02/2015 Visibile a tutti 02/28/2015 Lugano, Ticino, Switzerland 9.88 200 00:34:00 17.43 Km\h Cube Elite C68
28/02/2015 Visibile a tutti 2x20 MTB 19.77 701 01:00:36 19.58 Km\h Cube Elite C68
28/02/2015 Visibile a tutti 02/28/2015 Capriasca, Ticino, Switzerland 10.08 79 00:24:11 25.02 Km\h Cube Elite C68
26/02/2015 Visibile a tutti Collina d\'Oro 35.14 1091 02:14:39 15.66 Km\h Cube Elite C68
25/02/2015 Visibile a tutti Arbostora neve e alberi 28.28 575 01:56:47 14.53 Km\h Santacruz 5010 C
24/02/2015 Visibile a tutti 02/24/2015 Lugano, Ticino, Switzerland 39.06 518 01:33:51 24.97 Km\h Altre bici test
19/02/2015 Visibile a tutti 02/19/2015 Livigno, Lombardia, Italy 20.73 269 01:12:29 17.16 Km\h
17/02/2015 Visibile a tutti livigno fat 21.04 268 01:07:49 18.61 Km\h Altre bici test
16/02/2015 Visibile a tutti Con la fat dove ha un senso 20.91 264 01:24:20 14.88 Km\h Altre bici test
12/02/2015 Visibile a tutti Light! 34.65 682 01:33:19 22.28 Km\h Altre bici test
11/02/2015 Visibile a tutti Minicrocione 33.06 1010 02:05:02 15.87 Km\h Cube Elite C68
10/02/2015 Visibile a tutti Primavera arriva! 36.39 853 01:36:35 22.61 Km\h Altre bici test
09/02/2015 Visibile a tutti Cold 28.41 596 01:35:02 17.94 Km\h Cube Elite C68
08/02/2015 Visibile a tutti Monte Brè favonio 22.86 659 01:09:24 19.76 Km\h Altre bici test
07/02/2015 Visibile a tutti bitume freddo 36.55 885 01:43:32 21.18 Km\h Altre bici test
06/02/2015 Visibile a tutti Arbostora con neve 28.61 587 01:45:32 16.26 Km\h Cube Elite C68
03/02/2015 Visibile a tutti Bitume 42.15 991 01:55:38 21.87 Km\h Altre bici test
02/02/2015 Visibile a tutti Arbostora con neve 28.64 593 01:38:00 17.54 Km\h Cube Elite C68
30/01/2015 Visibile a tutti 01/30/2015 Lugano, Ticino, Switzerland 37.28 899 01:49:33 20.42 Km\h Altre bici test
28/01/2015 Visibile a tutti Morcote 45.4 1061 02:37:48 17.26 Km\h Cube Elite C68
27/01/2015 Visibile a tutti Spina verde 14.93 495 01:20:07 11.18 Km\h Cube Elite C68
26/01/2015 Visibile a tutti Bitume 28.89 617 01:17:38 22.33 Km\h Altre bici test
25/01/2015 Visibile a tutti Arbostora 28.4 596 01:46:29 16 Km\h Santacruz 5010 C
24/01/2015 Visibile a tutti Bitume 76.49 910 02:55:38 26.13 Km\h Altre bici test
24/01/2015 Visibile a tutti 01/24/2015 Lugano, Ticino, Switzerland 76.49 910 02:55:38 26.13 Km\h
23/01/2015 Visibile a tutti Le fat vanno bene nella neve.. come no? 13.56 594 01:52:51 7.21 Km\h Altre bici test
21/01/2015 Visibile a tutti Bitume con neve e pioggia 34.65 563 01:32:44 22.42 Km\h Altre bici test
20/01/2015 Visibile a tutti Serpentine 29.58 931 02:08:01 13.87 Km\h Santacruz 5010 C
19/01/2015 Visibile a tutti Training 3 (live) 43.5 919 02:36:30 16.68 Km\h Santacruz 5010 C
19/01/2015 Visibile a tutti Peninsulare 44.71 1084 02:36:32 17.14 Km\h Ibis Ripley
19/01/2015 Visibile a tutti 01/19/2015 Lugano, Ticino, Switzerland 44.71 1084 02:36:32 17.14 Km\h
18/01/2015 Visibile a tutti Fat bike 16.5 817 02:09:47 7.63 Km\h Altre bici test
17/01/2015 Visibile a tutti thunderstorm in January 27.89 475 01:42:50 16.27 Km\h Santacruz 5010 C
17/01/2015 Visibile a tutti 01/17/2015 Lugano, Ticino, Switzerland 28.22 245 01:43:07 16.42 Km\h
16/01/2015 Visibile a tutti 01/16/2015 Lugano, Ticino, Switzerland 1.17 5 00:14:50 4.74 Km\h
14/01/2015 Visibile a tutti 34 serpentine 29.95 934 02:14:34 13.36 Km\h Santacruz 5010 C
12/01/2015 Visibile a tutti Arbostora 36.22 813 01:55:26 18.83 Km\h Ibis Ripley
11/01/2015 Visibile a tutti Arbostora 34.37 810 02:01:39 16.95 Km\h Ibis Ripley
10/01/2015 Visibile a tutti Criocione 37.21 1125 02:34:24 14.46 Km\h Santacruz 5010 C
09/01/2015 Visibile a tutti 3/4 Whole Tamarrata 44.04 1550 03:37:41 12.14 Km\h Santacruz 5010 C
07/01/2015 Visibile a tutti Crocione 37.36 1181 02:29:32 14.99 Km\h Ibis Ripley
06/01/2015 Visibile a tutti Arbostora 30.29 696 01:43:31 17.56 Km\h Ibis Ripley
06/01/2015 Visibile a tutti 01/06/2015 Lugano, Ticino, Switzerland 30.29 696 01:43:31 17.56 Km\h
05/01/2015 Visibile a tutti Anduma al lac 30.81 295 01:05:12 28.35 Km\h Altre bici test
04/01/2015 Visibile a tutti braghe corte 27.72 453 01:36:10 17.29 Km\h Santacruz 5010 C
04/01/2015 Visibile a tutti Con Axel 6.6 104 00:46:08 8.58 Km\h Santacruz 5010 C
03/01/2015 Visibile a tutti Hop 24.38 833 01:33:33 15.64 Km\h Ibis Ripley
02/01/2015 Visibile a tutti Crocione caldo 37.34 1168 02:28:07 15.13 Km\h Ibis Ripley
31/12/2014 Visibile a tutti Giro del lago freddo 49.17 386 01:47:17 27.5 Km\h Altre bici test
30/12/2014 Visibile a tutti Arbostora 30.17 678 01:45:32 17.15 Km\h Santacruz 5010 C
22/12/2014 Visibile a tutti 8 Bar 50.66 1606 03:21:17 15.1 Km\h Ibis Ripley
20/12/2014 Visibile a tutti con axel 7.42 353 00:56:09 7.93 Km\h Santacruz 5010 C
19/12/2014 Visibile a tutti Bar definitivo 40.82 1416 03:35:15 11.38 Km\h Santacruz 5010 C
17/12/2014 Visibile a tutti Crocione 37.25 1162 02:22:12 15.72 Km\h Ibis Ripley
15/12/2014 Visibile a tutti Pioggia 28.36 411 01:32:10 18.46 Km\h Ibis Ripley
12/12/2014 Visibile a tutti Night ride 14.72 473 01:09:27 12.72 Km\h Altre bici test
12/12/2014 Visibile a tutti Test 6.18 33 00:27:56 13.28 Km\h Altre bici test
11/12/2014 Visibile a tutti Tremola 16.54 521 00:53:36 18.52 Km\h Altre bici test
09/12/2014 Visibile a tutti 27.5 vs. 29 4.78 11 00:17:31 16.36 Km\h Altre bici test
09/12/2014 Visibile a tutti 27.5 vs. 29 15.22 81 00:42:49 21.33 Km\h Altre bici test
08/12/2014 Visibile a tutti Crocione 37.31 1152 02:23:00 15.65 Km\h Altre bici test
06/12/2014 Visibile a tutti 2x20 e discesa 10.18 147 00:35:54 17.02 Km\h Ibis Ripley
06/12/2014 Visibile a tutti 2x20 e discesa 12.56 748 00:55:50 13.5 Km\h Ibis Ripley
04/12/2014 Visibile a tutti Arbostora sbüsà 28.36 556 01:35:49 17.76 Km\h Santacruz 5010 C
03/12/2014 Visibile a tutti Bitumiera 32.98 974 01:35:56 20.63 Km\h Altre bici test
01/12/2014 Visibile a tutti Malcantone 31.19 894 01:35:16 19.64 Km\h Altre bici test
28/11/2014 Visibile a tutti Garmin rotto? 34.81 242 01:34:39 22.07 Km\h
22/11/2014 Visibile a tutti Crocione 37.14 1226 02:25:15 15.34 Km\h Ibis Ripley
20/11/2014 Visibile a tutti Roubaix 53.9 1295 02:41:01 20.08 Km\h Altre bici test
18/11/2014 Visibile a tutti Arbostora 28.31 706 01:32:19 18.4 Km\h Ibis Ripley
14/11/2014 Visibile a tutti Training Unnamed Road 2.42 20 00:11:08 13.06 Km\h Altre bici test
14/11/2014 Visibile a tutti Training Unnamed Road 3.79 25 00:15:19 14.86 Km\h Altre bici test
13/11/2014 Visibile a tutti Training Strada Vicinale di Pian d'Alma 16.22 382 01:05:54 14.77 Km\h Altre bici test
12/11/2014 Visibile a tutti Training Strada Vicinale di Pian d'Alma 4.96 101 00:18:37 15.99 Km\h Altre bici test
12/11/2014 Visibile a tutti Training Strada Vicinale di Pian d'Alma 12.26 357 00:46:11 15.93 Km\h Altre bici test
12/11/2014 Visibile a tutti Training Strada Vicinale di Pian d'Alma 13.87 375 00:51:26 16.18 Km\h Altre bici test
12/11/2014 Visibile a tutti Training Strada Vicinale di Pian d'Alma 13.56 426 00:55:46 14.59 Km\h Altre bici test
11/11/2014 Visibile a tutti Training Strada Vicinale di Pian d'Alma 11.95 385 00:44:44 16.02 Km\h Altre bici test
11/11/2014 Visibile a tutti Training Strada Vicinale di Pian d'Alma 15.99 408 01:02:26 15.37 Km\h Altre bici test
10/11/2014 Visibile a tutti Training Strada Vicinale di Pian d'Alma 12.33 427 00:52:31 14.08 Km\h Altre bici test
08/11/2014 Visibile a tutti Crocione bagnato/2 37.1 1208 02:26:33 15.19 Km\h Altre bici test
07/11/2014 Visibile a tutti Crocione bagnato 37.08 1194 02:27:19 15.1 Km\h GT Sanction 27.5
03/11/2014 Visibile a tutti Arbostora 28.3 707 01:26:23 19.66 Km\h Ibis Ripley
02/11/2014 Visibile a tutti Con Axel 13.47 476 01:34:38 8.54 Km\h Santacruz 5010 C
31/10/2014 Visibile a tutti Training 2014-10-31 09:44:04 18.13 436 01:31:23 11.91 Km\h Altre bici test
31/10/2014 Visibile a tutti Training Via alla Cava, Torricella-Taverne 8.12 129 00:24:37 19.78 Km\h Altre bici test
30/10/2014 Visibile a tutti Training Baggio, Capriasca 16.44 854 01:22:05 12.02 Km\h Altre bici test
28/10/2014 Visibile a tutti Training Zona Campra, Blenio 6.94 56 00:21:40 19.21 Km\h Altre bici test
27/10/2014 Visibile a tutti Crocione 19.19 997 01:33:52 12.27 Km\h Altre bici test
26/10/2014 Visibile a tutti Arbostora 28.2 737 01:29:56 18.81 Km\h Santacruz 5010 C
24/10/2014 Visibile a tutti Monte Bar con Speci Enduro 27.5 50.19 1669 03:12:42 15.63 Km\h Altre bici test
21/10/2014 Visibile a tutti Monte Bar 56.65 1799 03:48:28 14.88 Km\h Ibis Ripley
20/10/2014 Visibile a tutti Arbostora 28.12 669 01:29:30 18.85 Km\h Ibis Ripley
18/10/2014 Visibile a tutti Allenamento 2014-10-18 08:18:08 16.36 395 01:29:03 11.02 Km\h GT Sanction 27.5
18/10/2014 Visibile a tutti Allenamento Via alla Cava, Torricella-Taverne 8.12 131 00:28:00 17.4 Km\h GT Sanction 27.5
17/10/2014 Visibile a tutti Training Lungolago Giuseppe Motta, Melide 11.92 266 00:38:05 18.77 Km\h Ibis Ripley
17/10/2014 Visibile a tutti laghet 21.47 617 01:12:49 17.69 Km\h Ibis Ripley
16/10/2014 Visibile a tutti The whole Tamarrata 26.12 560 01:55:48 13.53 Km\h GT Sanction 27.5
15/10/2014 Visibile a tutti Training Via Carà, Breganzona 2.9 124 00:25:24 6.85 Km\h Santacruz V10 C
15/10/2014 Visibile a tutti Run 3.33 268 00:26:14 7.61 Km\h Santacruz V10 C
14/10/2014 Visibile a tutti 8 bar 31.6 1386 02:44:30 11.53 Km\h Ibis Ripley
13/10/2014 Visibile a tutti Training Via Monte Boglia, Lugano 47.44 286 01:40:22 28.36 Km\h Altre bici test
12/10/2014 Visibile a tutti corsa 4.77 117 00:29:06 9.84 Km\h Altre bici test
10/10/2014 Visibile a tutti ricorsa 4.87 191 00:39:03 7.49 Km\h Altre bici test
09/10/2014 Visibile a tutti Umido 37 1190 02:20:56 15.75 Km\h Ibis Ripley
08/10/2014 Visibile a tutti Arbostora 28.29 679 01:30:14 18.81 Km\h Ibis Ripley
03/10/2014 Visibile a tutti Training Unnamed Road 2.96 42 00:16:15 10.93 Km\h Ibis Ripley
01/10/2014 Visibile a tutti Training Via alla Chiesa, Capriasca 18.49 910 01:25:22 13 Km\h Ibis Ripley
30/09/2014 Visibile a tutti Arbostora 28.18 685 01:28:05 19.2 Km\h Ibis Ripley
29/09/2014 Visibile a tutti Arbostora 28.3 689 01:23:09 20.42 Km\h Ibis Ripley
26/09/2014 Visibile a tutti Training 2014-09-26 13:07:09 8.18 16 00:23:31 20.88 Km\h GT Sanction 27.5
26/09/2014 Visibile a tutti Training 2014-09-26 12:20:45 7.91 16 00:24:00 19.78 Km\h GT Sanction 27.5
26/09/2014 Visibile a tutti Training 2014-09-26 11:31:06 7.67 16 00:27:32 16.71 Km\h GT Sanction 27.5
25/09/2014 Visibile a tutti Training Via al Moretto, Lugano 50.59 1700 03:24:26 14.85 Km\h Ibis Ripley
23/09/2014 Visibile a tutti Crocione 10.28 236 01:01:39 10.01 Km\h Santacruz 5010 C
22/09/2014 Visibile a tutti Training 2014-09-22 12:48:10 18 437 01:34:09 11.47 Km\h GT Sanction 27.5
22/09/2014 Visibile a tutti Training Via alla Cava, Torricella-Taverne 8.12 135 00:26:31 18.38 Km\h GT Sanction 27.5
20/09/2014 Visibile a tutti Training Unnamed Road, Zermatt 23.9 823 01:29:29 16.03 Km\h Ibis Ripley
20/09/2014 Visibile a tutti Training Dorf, Grächen 12.42 345 00:41:33 17.93 Km\h Ibis Ripley
19/09/2014 Visibile a tutti Training 2014-09-19 10:22:02 5.53 44 00:15:21 21.63 Km\h Ibis Ripley
19/09/2014 Visibile a tutti Training 2014-09-19 08:35:52 19.13 152 00:48:20 23.75 Km\h Ibis Ripley
19/09/2014 Visibile a tutti Training Dorf, Grächen 31.14 1267 01:53:25 16.47 Km\h Ibis Ripley
17/09/2014 Visibile a tutti Training Talabfahrt Leukerbad, Albinen 11.67 83 00:24:30 28.58 Km\h Ibis Ripley
17/09/2014 Visibile a tutti Training Untere Maressenstrasse, Leukerbad 33.18 934 01:44:59 18.96 Km\h Ibis Ripley
16/09/2014 Visibile a tutti Training Talabfahrt Leukerbad, Albinen 22.09 561 01:18:06 16.97 Km\h Ibis Ripley
16/09/2014 Visibile a tutti Training Route de Flanthey, Lens 18.76 399 00:56:03 20.08 Km\h Ibis Ripley
16/09/2014 Visibile a tutti Training Les Ruinettes, Bagnes 50.57 791 01:57:04 25.92 Km\h Ibis Ripley
15/09/2014 Visibile a tutti Training Rue de Médran, Bagnes 15.97 718 01:01:48 15.51 Km\h Ibis Ripley
14/09/2014 Visibile a tutti Training Rue de Médran, Bagnes 17.32 775 01:27:07 11.93 Km\h Ibis Ripley
12/09/2014 Visibile a tutti Training 2014-09-12 09:34:25 17.79 442 01:31:00 11.73 Km\h GT Sanction 27.5
12/09/2014 Visibile a tutti Training Via alla Cava, Torricella-Taverne 8.93 136 00:30:19 17.67 Km\h GT Sanction 27.5
10/09/2014 Visibile a tutti Invergneux 42.23 1736 03:05:55 13.63 Km\h Ibis Ripley
09/09/2014 Visibile a tutti Bitume 57.6 521 01:45:57 32.62 Km\h Altre bici test
08/09/2014 Visibile a tutti Arbostora 31.67 818 01:35:53 19.82 Km\h Ibis Ripley
07/09/2014 Visibile a tutti Allenamento Nufenenstrasse, Obergoms 4.94 153 00:30:40 9.66 Km\h Santacruz 5010 C
07/09/2014 Visibile a tutti Allenamento Binntalstrasse, Binn 6.57 326 00:53:45 7.33 Km\h Santacruz 5010 C
06/09/2014 Visibile a tutti Training 2014-09-06 07:41:40 17.94 440 01:37:03 11.09 Km\h GT Sanction 27.5
06/09/2014 Visibile a tutti Training Via alla Cava, Torricella-Taverne 8.16 125 00:27:57 17.52 Km\h GT Sanction 27.5
04/09/2014 Visibile a tutti Swiss Epic arrivo 50.49 1638 03:04:27 16.42 Km\h Ibis Ripley
03/09/2014 Visibile a tutti Training 2014-09-03 09:03:25 18.26 438 01:32:19 11.87 Km\h GT Sanction 27.5
03/09/2014 Visibile a tutti Training Via alla Cava, Torricella-Taverne 8.9 141 00:31:18 17.05 Km\h GT Sanction 27.5
02/09/2014 Visibile a tutti Monte Bar 59.41 2002 03:56:21 15.08 Km\h Ibis Ripley
01/09/2014 Visibile a tutti Training Via al Pozzo, Lugano 29.25 1006 01:58:15 14.84 Km\h Ibis Ripley
31/08/2014 Visibile a tutti Morcote 28.42 558 01:25:20 19.99 Km\h Ibis Ripley
28/08/2014 Visibile a tutti Training Enzianweg, Friedrichshafen 30.2 349 01:07:54 26.69 Km\h Altre bici test
25/08/2014 Visibile a tutti arbostora 28.9 726 01:26:27 20.06 Km\h Ibis Ripley
24/08/2014 Visibile a tutti Training Zona Grumo, Capriasca 17.19 345 00:58:15 17.71 Km\h Ibis Ripley
24/08/2014 Visibile a tutti Training Via P. Nobile, Capriasca 14.65 693 00:50:37 17.36 Km\h Ibis Ripley
24/08/2014 Visibile a tutti Training Via Medi, Lugano 9.85 208 00:29:55 19.76 Km\h Ibis Ripley
22/08/2014 Visibile a tutti Madonna delle Rezze 12.5 299 00:55:57 13.41 Km\h Ibis Ripley
21/08/2014 Visibile a tutti Training Via Plan della Golp 55.21 1966 04:04:24 13.55 Km\h Ibis Ripley
20/08/2014 Visibile a tutti Training Strada Statale 301 18.07 521 01:02:02 17.48 Km\h Ibis Ripley
20/08/2014 Visibile a tutti Training Strada Statale 301 3.02 17 00:09:17 19.5 Km\h Ibis Ripley
19/08/2014 Visibile a tutti Training Via Ostaria, Livigno 14.33 308 01:13:40 11.67 Km\h Ibis Ripley
19/08/2014 Visibile a tutti Training Via Plan della Golp 22.12 735 01:23:12 15.95 Km\h Ibis Ripley
18/08/2014 Visibile a tutti Training Via Isola, Livigno 25.75 956 01:42:57 15.01 Km\h Santacruz 5010 C
17/08/2014 Visibile a tutti Training Via Pozz, Livigno 21.39 523 01:07:52 18.91 Km\h Ibis Ripley
16/08/2014 Visibile a tutti Allenamento Via Plan della Golp 90.9 3046 06:18:23 14.41 Km\h Ibis Ripley
14/08/2014 Visibile a tutti Training Via Plan della Golp 38.11 1395 02:37:00 14.56 Km\h Ibis Ripley
13/08/2014 Visibile a tutti Training Via Plan della Golp 29.86 614 01:43:00 17.39 Km\h Ibis Ripley
12/08/2014 Visibile a tutti Training Via Isola, Livigno 30.94 1078 02:08:54 14.4 Km\h Ibis Ripley
11/08/2014 Visibile a tutti Training Via Plan della Golp 14.64 248 01:22:41 10.62 Km\h Ibis Ripley
10/08/2014 Visibile a tutti Training Via Plan della Golp 21.33 764 01:26:51 14.74 Km\h Ibis Ripley
10/08/2014 Visibile a tutti Training Strada Statale 301 17.34 490 00:55:22 18.79 Km\h Ibis Ripley
07/08/2014 Visibile a tutti Passo del Sole 24.45 523 02:03:56 11.84 Km\h GT Sanction 27.5
06/08/2014 Visibile a tutti Cornopass 24.21 377 01:56:47 12.44 Km\h Ibis Ripley
05/08/2014 Visibile a tutti Passo del Sole 24.46 525 02:09:48 11.31 Km\h GT Sanction 27.5
02/08/2014 Visibile a tutti Basta! 31.31 60 01:13:55 25.42 Km\h Santacruz V10 C
01/08/2014 Visibile a tutti Ultimi piattoni 39.15 53 01:31:40 25.62 Km\h Ibis Ripley
31/07/2014 Visibile a tutti 989 25.69 1080 02:03:01 12.53 Km\h Ibis Ripley
28/07/2014 Visibile a tutti Grappa 35 61.86 1636 04:25:50 13.96 Km\h Ibis Ripley
27/07/2014 Visibile a tutti Piave 45.76 80 01:50:02 24.95 Km\h Ibis Ripley
25/07/2014 Visibile a tutti Ponti chiusi 42.36 49 01:36:32 26.33 Km\h Ibis Ripley
23/07/2014 Visibile a tutti Giro della laguna 60.6 59 02:43:08 22.29 Km\h Ibis Ripley
21/07/2014 Visibile a tutti Lagoon 42.95 60 01:38:23 26.19 Km\h Ibis Ripley
20/07/2014 Visibile a tutti Lio Maggiore 42.43 54 01:38:27 25.86 Km\h Ibis Ripley
19/07/2014 Visibile a tutti Piattume 28.98 43 01:14:41 23.28 Km\h Ibis Ripley
17/07/2014 Visibile a tutti Alpinestars 8.36 310 00:46:45 10.74 Km\h Ibis Ripley
16/07/2014 Visibile a tutti Piattume assoluto 37.95 61 01:27:49 25.93 Km\h Ibis Ripley
15/07/2014 Visibile a tutti Sile 28.98 52 01:10:49 24.56 Km\h Ibis Ripley
13/07/2014 Visibile a tutti Minicrocione 31.54 820 01:46:41 17.74 Km\h Ibis Ripley
11/07/2014 Visibile a tutti Ripetuta iuvant 35.25 794 02:06:13 16.76 Km\h Ibis Ripley
10/07/2014 Visibile a tutti Arosio 26.87 853 01:50:50 14.54 Km\h Ibis Ripley
09/07/2014 Visibile a tutti Crocione 47.99 1455 02:59:42 16.02 Km\h Ibis Ripley
06/07/2014 Visibile a tutti Plaine Morte 41.98 1327 04:58:31 8.44 Km\h Ibis Ripley
05/07/2014 Visibile a tutti The Brazilian 30.8 702 02:16:53 13.5 Km\h Ibis Ripley
03/07/2014 Visibile a tutti Blenio 30.21 1261 02:43:33 11.08 Km\h Ibis Ripley
03/07/2014 Visibile a tutti Blenio 14.25 839 01:13:20 11.66 Km\h Ibis Ripley
01/07/2014 Visibile a tutti Tamaro 18.69 427 01:37:56 11.45 Km\h GT Sanction 27.5
30/06/2014 Visibile a tutti Tamaro 44 1137 02:39:09 16.59 Km\h GT Sanction 27.5
28/06/2014 Visibile a tutti Carona 35.83 826 02:05:21 17.15 Km\h Santacruz 5010 C
26/06/2014 Visibile a tutti Davos 32.22 1596 02:15:29 14.27 Km\h Altre bici test
24/06/2014 Visibile a tutti Valcolla 56.18 1231 02:27:50 22.8 Km\h Altre bici test
22/06/2014 Visibile a tutti Leukerbad 50.94 1553 04:19:55 11.76 Km\h Ibis Ripley
21/06/2014 Visibile a tutti Zermatt - Visp 79.48 2427 05:14:40 15.15 Km\h Ibis Ripley
20/06/2014 Visibile a tutti The whole tamarrata 26.25 485 02:13:20 11.81 Km\h GT Sanction 27.5
19/06/2014 Visibile a tutti Yeti 13.61 519 01:33:57 8.69 Km\h Altre bici test
19/06/2014 Visibile a tutti Yeti 6.01 289 01:00:17 5.98 Km\h Altre bici test
18/06/2014 Visibile a tutti Arbostora 30.24 675 01:36:33 18.79 Km\h Ibis Ripley
17/06/2014 Visibile a tutti Piccolo crocione 31.43 816 01:49:17 17.26 Km\h Ibis Ripley
15/06/2014 Visibile a tutti dimenticato di accendere GPS 10.31 171 00:27:24 22.57 Km\h Santacruz Bronson C
12/06/2014 Visibile a tutti Trek Remedy 29 carbon 15.31 445 01:19:19 11.58 Km\h Altre bici test
11/06/2014 Visibile a tutti Trek Fuel EX giorno 2 38.01 691 02:37:16 14.5 Km\h Altre bici test
10/06/2014 Visibile a tutti Trek Fuel ex 27.5 13.71 411 01:02:00 13.26 Km\h Altre bici test
08/06/2014 Visibile a tutti Benz 36.57 1090 02:21:24 15.52 Km\h Ibis Ripley
04/06/2014 Visibile a tutti Ripley 37.83 787 02:19:27 16.28 Km\h Ibis Ripley
03/06/2014 Visibile a tutti Baretto 34.47 934 02:19:05 14.87 Km\h Ibis Ripley
31/05/2014 Visibile a tutti Albstadt Marathon 24.18 376 00:56:04 25.87 Km\h Altre bici test
28/05/2014 Visibile a tutti Arosio 8.03 122 00:29:17 16.46 Km\h GT Sanction 27.5
28/05/2014 Visibile a tutti Arosio 22.67 659 01:56:21 11.69 Km\h GT Sanction 27.5
27/05/2014 Visibile a tutti Monte Bar 46.88 1513 03:08:26 14.93 Km\h Ibis Ripley
24/05/2014 Visibile a tutti Tamaro 7.43 1 00:24:53 17.92 Km\h GT Sanction 27.5
24/05/2014 Visibile a tutti Tamaro 7.44 1 00:24:00 18.61 Km\h GT Sanction 27.5
24/05/2014 Visibile a tutti Tamaro 7.44 3 00:22:44 19.64 Km\h GT Sanction 27.5
23/05/2014 Visibile a tutti Quickie 32.81 902 01:58:42 16.58 Km\h Ibis Ripley
22/05/2014 Visibile a tutti La Ripley vola 28.21 515 01:27:55 19.25 Km\h Ibis Ripley
21/05/2014 Visibile a tutti Monte Bar all trails 40.12 1364 03:04:40 13.03 Km\h Santacruz 5010 C
20/05/2014 Visibile a tutti Tamaro 7.88 1 00:30:45 15.38 Km\h GT Sanction 27.5
20/05/2014 Visibile a tutti Tamaro 8.04 5 00:25:28 18.94 Km\h GT Sanction 27.5
20/05/2014 Visibile a tutti Tamaro 7.51 1 00:23:45 18.97 Km\h GT Sanction 27.5
19/05/2014 Visibile a tutti Tassera 47.57 1568 03:30:26 13.56 Km\h Ibis Ripley
17/05/2014 Visibile a tutti Valle del Trodo Trail 8.09 10 00:27:24 17.72 Km\h GT Sanction 27.5
17/05/2014 Visibile a tutti Valle del Trodo Trail 18.46 1031 00:56:36 19.57 Km\h GT Sanction 27.5
17/05/2014 Visibile a tutti Valle del Trodo Trail 7.88 1 00:26:28 17.87 Km\h GT Sanction 27.5
14/05/2014 Visibile a tutti Tamaro 13.2 147 01:12:30 10.92 Km\h GT Sanction 27.5
14/05/2014 Visibile a tutti Tamaro 4.29 6 00:19:20 13.31 Km\h GT Sanction 27.5
13/05/2014 Visibile a tutti Arbostora 43 1018 02:34:49 16.66 Km\h Santacruz 5010 C
12/05/2014 Visibile a tutti Crocione 18.83 889 01:41:20 11.15 Km\h GT Sanction 27.5
11/05/2014 Visibile a tutti Arbostora 28.04 517 01:25:04 19.78 Km\h Santacruz 5010 C
09/05/2014 Visibile a tutti Latsch 38.38 1150 03:12:44 11.95 Km\h GT Sanction 27.5
08/05/2014 Visibile a tutti Latsch 2.61 0 00:10:04 15.55 Km\h GT Sanction 27.5
08/05/2014 Visibile a tutti Latsch 7.19 14 00:32:01 13.47 Km\h GT Sanction 27.5
08/05/2014 Visibile a tutti Latsch 9.98 5 00:29:44 20.15 Km\h GT Sanction 27.5
08/05/2014 Visibile a tutti Latsch 10 5 00:30:36 19.61 Km\h GT Sanction 27.5
08/05/2014 Visibile a tutti Latsch 10.39 9 00:31:32 19.77 Km\h GT Sanction 27.5
07/05/2014 Visibile a tutti Monte Sole 9.95 8 00:29:44 20.08 Km\h Altre bici test
05/05/2014 Visibile a tutti 8 Bar 31.96 1307 02:40:36 11.94 Km\h Santacruz Bronson C
04/05/2014 Visibile a tutti Bike Festival 24.88 321 01:44:59 14.22 Km\h Altre bici test
03/05/2014 Visibile a tutti Bike Festival 4.65 8 00:14:40 19.01 Km\h Altre bici test
03/05/2014 Visibile a tutti Bike Festival 9.93 29 00:31:29 18.93 Km\h Altre bici test
01/05/2014 Visibile a tutti Val Pura 39.35 1948 03:41:07 10.68 Km\h Altre bici test
30/04/2014 Visibile a tutti Training Unnamed Road 10.45 50 00:35:51 17.48 Km\h Altre bici test
30/04/2014 Visibile a tutti Training Unnamed Road 10.67 112 00:36:23 17.59 Km\h Altre bici test
29/04/2014 Visibile a tutti Arbostora 29.02 524 01:32:18 18.87 Km\h Santacruz 5010 C
26/04/2014 Visibile a tutti Giù dagli sci, su in bici! 28.28 640 01:23:33 20.31 Km\h Santacruz 5010 C
18/04/2014 Visibile a tutti Allenamento Via alla Chiesa, Capriasca 14.92 906 01:24:18 10.62 Km\h Santacruz Bronson C
17/04/2014 Visibile a tutti Allenamento Terra di Sopra, Alto Malcantone 23.14 691 01:51:48 12.42 Km\h Santacruz Bronson C
17/04/2014 Visibile a tutti al bus! 8.49 134 00:29:03 17.54 Km\h Santacruz Bronson C
15/04/2014 Visibile a tutti Via col vento 39.96 1270 02:33:50 15.59 Km\h Santacruz 5010 C
14/04/2014 Visibile a tutti Allenamento Arosio di Sopra, Alto Malcantone 23.22 689 01:47:55 12.91 Km\h Santacruz Bronson C
14/04/2014 Visibile a tutti Allenamento Via Medi, Lugano 8.25 132 00:28:00 17.67 Km\h Santacruz Bronson C
13/04/2014 Visibile a tutti Sunday ride 28.21 635 01:28:56 19.03 Km\h Santacruz 5010 C
11/04/2014 Visibile a tutti Allenamento Via alla Chiesa, Capriasca 29.39 1331 02:38:01 11.16 Km\h Santacruz Bronson C
10/04/2014 Visibile a tutti Allenamento Soresina, Rivera 2.94 8 00:11:31 15.33 Km\h Santacruz V10 C
10/04/2014 Visibile a tutti Allenamento Soresina, Rivera 2.77 1 00:11:48 14.07 Km\h Santacruz V10 C
10/04/2014 Visibile a tutti Allenamento Soresina, Rivera 2.71 1 00:12:14 13.28 Km\h Santacruz V10 C
10/04/2014 Visibile a tutti Allenamento Soresina, Rivera 2.7 9 00:11:23 14.24 Km\h Santacruz V10 C
10/04/2014 Visibile a tutti Allenamento Soresina, Rivera 2.86 0 00:13:02 13.18 Km\h Santacruz V10 C
10/04/2014 Visibile a tutti Allenamento Soresina, Rivera 2.43 0 00:12:14 11.93 Km\h Santacruz V10 C
09/04/2014 Visibile a tutti Allenamento Via alla Chiesa, Capriasca 18.63 928 01:43:57 10.76 Km\h Santacruz Bronson C
08/04/2014 Visibile a tutti Allenamento Via alla Chiesa, Capriasca 18.63 925 01:43:26 10.81 Km\h Santacruz Bronson C
07/04/2014 Visibile a tutti Allenamento Via alla Cava, Torricella-Taverne 10.58 563 01:09:36 9.12 Km\h Santacruz Bronson C
06/04/2014 Visibile a tutti Allenamento CA di Faritt, Bidogno 16.07 101 01:14:31 12.94 Km\h Santacruz Bronson C
04/04/2014 Visibile a tutti X0 mozzi 39.05 1186 02:26:42 15.97 Km\h Santacruz 5010 C
03/04/2014 Visibile a tutti Formula T1 fischiano da impazzire 28.22 644 01:33:26 18.12 Km\h Santacruz 5010 C
30/03/2014 Visibile a tutti Training FR0067, Moab 38.65 347 02:11:49 17.59 Km\h Altre bici test
30/03/2014 Visibile a tutti Training Moab Kane Creek Boulevard, Moab 12.97 482 01:19:26 9.8 Km\h Altre bici test
29/03/2014 Visibile a tutti Training FR0067, Moab 38.82 326 02:15:53 17.14 Km\h Altre bici test
28/03/2014 Visibile a tutti Training Gemini Bridges Road, Moab 59.11 935 04:39:14 12.7 Km\h Altre bici test
26/03/2014 Visibile a tutti Training Palmer Point Trail, Colorado Springs 28.79 628 02:15:01 12.79 Km\h Altre bici test
26/03/2014 Visibile a tutti Training Centennial Boulevard, Colorado Springs 15.71 363 01:14:26 12.66 Km\h Altre bici test
25/03/2014 Visibile a tutti Training Glade Park Road, Grand Junction 12.4 335 01:05:10 11.41 Km\h Altre bici test
24/03/2014 Visibile a tutti Porcupine + Captain Ahab 68.14 559 04:23:24 15.52 Km\h Altre bici test
23/03/2014 Visibile a tutti Training FR0067, Moab 30.87 168 01:38:31 18.8 Km\h Altre bici test
22/03/2014 Visibile a tutti Training Old Highway, Moab 27.02 314 01:25:44 18.91 Km\h Altre bici test
21/03/2014 Visibile a tutti Training East Center Street, Moab 16.96 303 01:15:28 13.48 Km\h Altre bici test
19/03/2014 Visibile a tutti Allenamento Via Fontanedo, Colico Piano 13.65 804 01:30:56 9.01 Km\h Santacruz Bronson C
18/03/2014 Visibile a tutti Arbostora libero! 28.22 662 01:30:22 18.74 Km\h Santacruz 5010 C
17/03/2014 Visibile a tutti Monti di Torricella 29.24 941 02:02:33 14.32 Km\h Santacruz Bronson C
15/03/2014 Visibile a tutti Monte Bar Taverne 42.62 1329 02:53:09 14.77 Km\h Santacruz 5010 C
13/03/2014 Visibile a tutti Training Via G. Porta 5.76 95 00:21:46 15.89 Km\h Santacruz Bronson C
13/03/2014 Visibile a tutti Training Via G. Porta, Biolla 3.38 54 00:14:29 14.02 Km\h Santacruz Bronson C
13/03/2014 Visibile a tutti Training Via G. Porta, Biolla 4.74 90 00:18:54 15.06 Km\h Santacruz Bronson C
13/03/2014 Visibile a tutti Training Via G. Porta, Biolla 3.96 72 00:15:49 15.01 Km\h Santacruz Bronson C
13/03/2014 Visibile a tutti Training Via G. Porta, Biolla 4.65 70 00:18:19 15.24 Km\h Santacruz Bronson C
12/03/2014 Visibile a tutti Bar basso 39.36 1177 02:33:00 15.44 Km\h Santacruz 5010 C
11/03/2014 Visibile a tutti Arbostora senza finale 24.65 650 01:25:48 17.24 Km\h Santacruz 5010 C
10/03/2014 Visibile a tutti Monte bar 40.39 1111 02:44:54 14.69 Km\h Santacruz Bronson C
27/02/2014 Visibile a tutti Training Località Valpiana 3.59 29 00:14:30 14.85 Km\h Santacruz Bronson C
27/02/2014 Visibile a tutti Training Strada Provinciale 103 5.46 71 00:32:02 10.23 Km\h Santacruz Bronson C
27/02/2014 Visibile a tutti Training Strada Provinciale 103 3.89 22 00:18:29 12.64 Km\h Santacruz Bronson C
25/02/2014 Visibile a tutti la neve si scioglie 13.07 579 01:13:55 10.61 Km\h Santacruz Bronson C
24/02/2014 Visibile a tutti Garmin kaputt 18.44 461 01:08:27 16.16 Km\h Santacruz 5010 C
21/02/2014 Visibile a tutti Ruota libera kaputt 23.98 585 01:34:32 15.22 Km\h Santacruz 5010 C
20/02/2014 Visibile a tutti Aria di primavera 33.5 919 02:02:04 16.47 Km\h Santacruz 5010 C
18/02/2014 Visibile a tutti Con tanti saluti alle fat bike.. 29.24 955 02:21:37 12.39 Km\h Santacruz 5010 C
17/02/2014 Visibile a tutti Arbostora 24.6 520 01:36:30 15.29 Km\h Santacruz 5010 C
14/02/2014 Visibile a tutti supersize me 16 614 01:50:20 8.7 Km\h
12/02/2014 Visibile a tutti Braghe corte! 24.05 628 01:31:40 15.74 Km\h Santacruz 5010 C
11/02/2014 Visibile a tutti monte bar snowboard 5.98 972 01:52:09 3.2 Km\h
09/02/2014 Visibile a tutti monte bar Winter 19.95 329 01:31:09 13.13 Km\h
08/02/2014 Visibile a tutti Fat 13.39 622 01:40:22 8 Km\h
06/02/2014 Visibile a tutti fat bike datemi gli sci 5.58 4 00:42:39 7.84 Km\h
06/02/2014 Visibile a tutti fat bike salita ridatemi le ruote normali 7.56 569 00:57:50 7.84 Km\h
02/02/2014 Visibile a tutti Wet 27.07 583 01:39:46 16.28 Km\h Santacruz 5010 C
28/01/2014 Visibile a tutti Allenamento Via alla Chiesa, Capriasca 13.4 617 01:10:53 11.34 Km\h Santacruz Bronson C
27/01/2014 Visibile a tutti Garmin che fai? 24.1 407 01:16:59 18.79 Km\h
25/01/2014 Visibile a tutti Trailride 34.09 972 02:17:20 14.89 Km\h
24/01/2014 Visibile a tutti Allenamento Via Medi, Lugano 18.33 631 01:30:03 12.21 Km\h Santacruz Bronson C
23/01/2014 Visibile a tutti Allenamento Via Medi, Lugano 28.27 658 01:46:00 16 Km\h
15/01/2014 Visibile a tutti Training Via Medi, Lugano 28.2 653 01:30:38 18.67 Km\h
13/01/2014 Visibile a tutti morcote 27.78 469 01:30:32 18.41 Km\h
11/01/2014 Visibile a tutti Monte Bar Winter Edition 32.76 876 02:07:52 15.37 Km\h Santacruz Bronson C
10/01/2014 Visibile a tutti Malcantone 26.27 848 01:58:51 13.26 Km\h Santacruz Bronson C
10/01/2014 Visibile a tutti Al garage 4.15 64 00:15:05 16.49 Km\h Santacruz Bronson C
09/01/2014 Visibile a tutti Bocchetta di Nava 7.34 357 00:35:43 12.33 Km\h Santacruz Bronson C
07/01/2014 Visibile a tutti Allenamento Via alla Chiesa, Capriasca 13.36 617 01:13:10 10.96 Km\h Santacruz Bronson C
05/01/2014 Visibile a tutti Training Via Medi, Lugano 28.17 619 01:33:57 17.99 Km\h
23/12/2013 Visibile a tutti Allenamento Via Medi, Lugano 28.63 680 01:41:58 16.85 Km\h Santacruz Bronson C
18/12/2013 Visibile a tutti Mai fermarsi 33.84 942 02:10:33 15.55 Km\h Santacruz Bronson C
17/12/2013 Visibile a tutti Allenamento Baggio, Bidogno 19.94 652 01:36:31 12.4 Km\h Santacruz Bronson C
14/12/2013 Visibile a tutti Blitzride 13.38 620 01:04:11 12.51 Km\h Santacruz Bronson C
13/12/2013 Visibile a tutti Allenamento Via alla Chiesa, Capriasca 18.05 922 01:37:49 11.07 Km\h Santacruz Bronson C
12/12/2013 Visibile a tutti Bos Deville rocks 15.31 137 00:41:47 21.98 Km\h Santacruz Bronson C
11/12/2013 Visibile a tutti Allenamento Via alla Chiesa, Capriasca 14.71 714 01:22:25 10.71 Km\h Santacruz Bronson C
10/12/2013 Visibile a tutti Uptimizer ride 14.85 115 00:42:15 21.09 Km\h Santacruz Bronson C
09/12/2013 Visibile a tutti Bos Deville 13.6 600 01:10:12 11.62 Km\h Santacruz Bronson C
07/12/2013 Visibile a tutti Bos setup 9.27 311 00:38:04 14.61 Km\h Santacruz Bronson C
06/12/2013 Visibile a tutti Training Via Statale, Griante 15.67 770 01:28:15 10.65 Km\h Santacruz Bronson C
05/12/2013 Visibile a tutti Allenamento Via alla Chiesa, Capriasca 18.6 947 01:50:15 10.12 Km\h Santacruz Bronson C
03/12/2013 Visibile a tutti Allenamento Via Medi, Lugano 28.69 631 01:34:11 18.28 Km\h
02/12/2013 Visibile a tutti Crocione spikes 17.7 888 01:57:28 9.04 Km\h
29/11/2013 Visibile a tutti Icy trails 30.43 587 01:45:56 17.24 Km\h
27/11/2013 Visibile a tutti Fox Rad round 1 5.92 183 00:23:54 14.86 Km\h Santacruz Bronson C
27/11/2013 Visibile a tutti Fox Red round 2 5.72 185 00:23:36 14.55 Km\h Santacruz Bronson C
27/11/2013 Visibile a tutti fox Red round 3 5.9 202 00:24:43 14.33 Km\h Santacruz Bronson C
23/11/2013 Visibile a tutti Winter is there 28.78 624 01:33:50 18.4 Km\h
20/11/2013 Visibile a tutti Crocione pausa pioggia 18.17 884 01:43:18 10.56 Km\h Santacruz Bronson C
16/11/2013 Visibile a tutti Allenamento Via Medi, Lugano 29.93 691 01:39:29 18.05 Km\h
13/11/2013 Visibile a tutti Alpe di Neggia con tanta foglia 10.33 26 00:51:24 12.05 Km\h Santacruz Bronson C
12/11/2013 Visibile a tutti Morcote 28.97 528 01:46:10 16.37 Km\h Santacruz Bronson C
12/11/2013 Visibile a tutti Allenamento Via Medi, Lugano 30.11 719 01:42:54 17.56 Km\h
09/11/2013 Visibile a tutti Crocione 17.93 880 01:33:32 11.5 Km\h Santacruz Bronson C
07/11/2013 Visibile a tutti Monte Bar all trails 40.77 1510 03:18:44 12.31 Km\h
06/11/2013 Visibile a tutti DC f you! 30.01 677 01:42:13 17.62 Km\h
05/11/2013 Visibile a tutti Crocione 18.71 934 01:46:53 10.5 Km\h Santacruz Bronson C
31/10/2013 Visibile a tutti Lost and found in Tenerife 47.4 691 03:12:19 14.79 Km\h Altre bici test
29/10/2013 Visibile a tutti Tenerife 1 45.13 1326 02:59:14 15.11 Km\h Altre bici test
25/10/2013 Visibile a tutti Allenamento Via alla Cava, Torricella-Taverne 8.53 118 00:25:55 19.76 Km\h Altre bici test
25/10/2013 Visibile a tutti The whole tamarrata 17.77 424 01:41:47 10.47 Km\h Altre bici test
24/10/2013 Visibile a tutti Ritirata strategica: pioggia 6.66 165 00:27:40 14.45 Km\h
24/10/2013 Visibile a tutti Allenamento Via Medi, Lugano 30 708 01:47:05 16.81 Km\h
21/10/2013 Visibile a tutti Tamaro 12.64 169 01:07:10 11.29 Km\h Altre bici test
18/10/2013 Visibile a tutti Allenamento 18-10-13 alle 11:41 3.86 72 00:16:18 14.22 Km\h Santacruz Bronson C
18/10/2013 Visibile a tutti Allenamento Via degli Alisei, Finale Ligure 2.52 22 00:09:48 15.41 Km\h Santacruz Bronson C
18/10/2013 Visibile a tutti Allenamento Unnamed Road 3.27 79 00:19:29 10.07 Km\h Santacruz Bronson C
18/10/2013 Visibile a tutti Allenamento Unnamed Road 3.29 3 00:09:59 19.76 Km\h Santacruz Bronson C
17/10/2013 Visibile a tutti Allenamento Strada Provinciale 27 1.85 4 00:05:59 18.53 Km\h Santacruz Bronson C
17/10/2013 Visibile a tutti Allenamento Via degli Alisei, Finale Ligure 2.59 19 00:10:38 14.62 Km\h Santacruz Bronson C
17/10/2013 Visibile a tutti Allenamento Via degli Alisei, Finale Ligure 2.7 21 00:12:10 13.33 Km\h Santacruz Bronson C
17/10/2013 Visibile a tutti Allenamento 17-10-13 alle 08:22 4.02 62 00:18:32 13.02 Km\h Santacruz Bronson C
17/10/2013 Visibile a tutti Allenamento 17-10-13 alle 09:09 4.3 69 00:15:31 16.61 Km\h Santacruz Bronson C
17/10/2013 Visibile a tutti Allenamento Strada Statale 490 4.82 75 00:18:05 16 Km\h Santacruz Bronson C
17/10/2013 Visibile a tutti Allenamento 17-10-13 alle 07:37 4.32 73 00:18:13 14.24 Km\h Santacruz Bronson C
16/10/2013 Visibile a tutti EWS Finale PS4 35.7 699 02:01:10 17.68 Km\h Santacruz V10 C
14/10/2013 Visibile a tutti Allenamento Via Medi, Lugano 28.22 650 01:33:13 18.16 Km\h Santacruz Bronson C
11/10/2013 Visibile a tutti Crocione neve troppo presto!! 18.33 834 01:32:01 11.95 Km\h Altre bici test
09/10/2013 Visibile a tutti Allenamento Via Medi, Lugano 61.69 1155 02:23:16 25.83 Km\h Altre bici test
08/10/2013 Visibile a tutti Allenamento Via Medi, Lugano 28.54 624 01:33:59 18.22 Km\h Santacruz Bronson C
07/10/2013 Visibile a tutti The whole Tamarrata 18 427 01:39:20 10.88 Km\h
07/10/2013 Visibile a tutti Allenamento Via alla Cava, Torricella-Taverne 8.2 121 00:26:42 18.43 Km\h
05/10/2013 Visibile a tutti Crocione nebbioso 18.49 925 01:48:29 10.23 Km\h Santacruz Bronson C
04/10/2013 Visibile a tutti Allenamento Soresina, Rivera 2.54 0 00:11:41 13.05 Km\h Santacruz Bronson C
04/10/2013 Visibile a tutti Allenamento Soresina, Rivera 2.63 0 00:12:04 13.09 Km\h Santacruz Bronson C
04/10/2013 Visibile a tutti Allenamento Soresina, Rivera 2.59 4 00:10:24 14.95 Km\h Santacruz Bronson C
04/10/2013 Visibile a tutti Allenamento Soresina, Rivera 2.75 0 00:11:16 14.65 Km\h Santacruz Bronson C
04/10/2013 Visibile a tutti Allenamento Soresina, Rivera 2.73 9 00:11:36 14.1 Km\h Santacruz Bronson C
04/10/2013 Visibile a tutti Allenamento Soresina, Rivera 2.79 0 00:11:29 14.58 Km\h Santacruz Bronson C
03/10/2013 Visibile a tutti Allenamento Via Medi, Lugano 27.94 768 01:47:46 15.55 Km\h Santacruz Bronson C
02/10/2013 Visibile a tutti Cornopass 23.79 522 02:08:07 11.14 Km\h Santacruz Bronson C
01/10/2013 Visibile a tutti Crocione foggy 19.56 904 01:56:53 10.04 Km\h Altre bici test
26/09/2013 Visibile a tutti Tamaro DH 2.82 0 00:12:39 13.36 Km\h Altre bici test
26/09/2013 Visibile a tutti Tamaro DH 3.04 447 00:10:56 16.7 Km\h Altre bici test
26/09/2013 Visibile a tutti Tamaro DH 3.13 446 00:11:17 16.67 Km\h Altre bici test
26/09/2013 Visibile a tutti Tamaro DH 2.89 129 00:10:35 16.39 Km\h Altre bici test
26/09/2013 Visibile a tutti Tamaro DH 3.11 440 00:10:50 17.21 Km\h Altre bici test
25/09/2013 Visibile a tutti Allenamento Via alla Cava, Torricella-Taverne 8.16 114 00:26:21 18.58 Km\h
25/09/2013 Visibile a tutti The whole tamarrata 18.15 426 01:33:35 11.64 Km\h
21/09/2013 Visibile a tutti Tamaro enduro 18.06 431 01:34:34 11.46 Km\h Santacruz Bronson C
20/09/2013 Visibile a tutti Saflischpass 45.35 1688 04:01:55 11.25 Km\h Santacruz Bronson C
18/09/2013 Visibile a tutti Allenamento Via Medi, Lugano 38.52 1301 02:38:36 14.57 Km\h Santacruz Bronson C
17/09/2013 Visibile a tutti Allenamento Via Medi, Lugano 28.5 941 01:57:02 14.61 Km\h Santacruz Bronson C
16/09/2013 Visibile a tutti Allenamento Via Medi, Lugano 28.39 606 01:33:20 18.25 Km\h Santacruz Bronson C
13/09/2013 Visibile a tutti Allenamento Kühboden, Fiesch 32.02 1000 02:49:52 11.31 Km\h Santacruz Bronson C
12/09/2013 Visibile a tutti tamaro forcellino rotto 18.93 453 01:47:33 10.56 Km\h
11/09/2013 Visibile a tutti Tamarrata catena rotta 18.19 373 01:31:46 11.89 Km\h
11/09/2013 Visibile a tutti Allenamento Via alla Cava, Torricella-Taverne 8.99 118 00:31:53 16.92 Km\h
09/09/2013 Visibile a tutti Crocione 18.25 879 01:36:30 11.35 Km\h Santacruz Bronson C
07/09/2013 Visibile a tutti Allenamento 07-09-13 alle 07:41 27.28 547 02:03:36 13.24 Km\h Santacruz Bronson C
05/09/2013 Visibile a tutti tamaro bucato 3 volte 18.33 404 01:37:34 11.27 Km\h
04/09/2013 Visibile a tutti Allenamento Lukmanierpass, Medel 24.79 600 02:03:26 12.05 Km\h
03/09/2013 Visibile a tutti Allenamento Nufenenstrasse, Ulrichen 43.48 1243 03:34:51 12.14 Km\h Santacruz Bronson C
02/09/2013 Visibile a tutti Allenamento 02-09-13 alle 12:43 18 411 01:34:35 11.42 Km\h Santacruz Bronson C
02/09/2013 Visibile a tutti Allenamento Via alla Cava, Torricella-Taverne 8.12 123 00:26:07 18.65 Km\h Santacruz Bronson C
01/09/2013 Visibile a tutti Allenamento Via Medi, Lugano 28.5 618 01:28:33 19.31 Km\h Santacruz Bronson C
25/08/2013 Visibile a tutti Allenamento Via Medi, Lugano 30.55 962 02:06:20 14.51 Km\h
23/08/2013 Visibile a tutti Allenamento Via Fedaria 10.53 203 00:52:00 12.15 Km\h Santacruz Bronson C
22/08/2013 Visibile a tutti Allenamento Via Plan della Golp 2.86 9 00:09:56 17.3 Km\h Santacruz Bronson C
22/08/2013 Visibile a tutti Allenamento Via Fedaria 11.23 32 00:25:12 26.73 Km\h Santacruz Bronson C
21/08/2013 Visibile a tutti Piz Umbrail 89.05 3380 05:25:45 16.4 Km\h Santacruz Bronson C
19/08/2013 Visibile a tutti Allenamento Via Plan della Golp 25.48 678 01:38:29 15.52 Km\h Santacruz Bronson C
18/08/2013 Visibile a tutti Madonna delle Rezze 10.81 123 00:54:51 11.83 Km\h Santacruz Bronson C
17/08/2013 Visibile a tutti Federia 12.65 80 00:42:12 17.99 Km\h Santacruz Bronson C
17/08/2013 Visibile a tutti Costaccia 8.86 581 00:27:56 19.03 Km\h Santacruz Bronson C
16/08/2013 Visibile a tutti Allenamento Strada Statale 301 0.8 45 00:03:10 15.09 Km\h Santacruz Bronson C
16/08/2013 Visibile a tutti Allenamento Strada Statale 301, Sant'anna 16.24 285 00:50:28 19.31 Km\h Santacruz Bronson C
15/08/2013 Visibile a tutti Madonna delle Rezze 10.52 127 00:53:48 11.73 Km\h Santacruz Bronson C
14/08/2013 Visibile a tutti Allenamento Via Plan della Golp 16.29 447 01:05:28 14.93 Km\h Santacruz Bronson C
13/08/2013 Visibile a tutti Allenamento Via Plan della Golp 33.2 955 02:09:50 15.34 Km\h Santacruz Bronson C
12/08/2013 Visibile a tutti Allenamento Via Plan della Golp 21.26 744 01:30:56 14.02 Km\h Santacruz Bronson C
11/08/2013 Visibile a tutti Allenamento Via Pozz, Livigno 17.93 650 01:20:59 13.28 Km\h Santacruz Bronson C
11/08/2013 Visibile a tutti Allenamento Via Fedaria 12.12 232 00:50:24 14.43 Km\h Santacruz Bronson C
08/08/2013 Visibile a tutti fuga dal temporale 13.21 583 01:13:38 10.76 Km\h
06/08/2013 Visibile a tutti meccanico 5.74 222 00:19:24 17.74 Km\h Altre bici test
06/08/2013 Visibile a tutti the whole Tamarrata 17.14 373 01:34:07 10.92 Km\h Santacruz Bronson C
06/08/2013 Visibile a tutti Allenamento Via Medi, Lugano 6.47 86 00:19:45 19.64 Km\h Santacruz Bronson C
06/08/2013 Visibile a tutti Allenamento Via alla Cava, Torricella-Taverne 9.04 126 00:29:40 18.29 Km\h Santacruz Bronson C
02/08/2013 Visibile a tutti Allenamento Via delle Ninfee, Lido di Iesolo 43.64 23 01:24:13 31.09 Km\h Altre bici test
31/07/2013 Visibile a tutti Allenamento Via Bafile, Lido di Iesolo 48.87 54 01:57:41 24.92 Km\h Altre bici test
29/07/2013 Visibile a tutti Allenamento Viale delle Ninfee, Lido di Iesolo 47.41 41 01:30:45 31.35 Km\h Altre bici test
27/07/2013 Visibile a tutti Allenamento Via Bafile, Lido di Iesolo 43.5 23 01:23:14 31.36 Km\h Altre bici test
25/07/2013 Visibile a tutti Allenamento Via delle Ninfee, Lido di Iesolo 67.98 61 02:29:44 27.24 Km\h Altre bici test
23/07/2013 Visibile a tutti Allenamento Via delle Sirene, Lido di Iesolo 40.05 47 01:21:06 29.63 Km\h Altre bici test
21/07/2013 Visibile a tutti Allenamento Via Levantina, Lido di Iesolo 43.92 41 01:34:57 27.76 Km\h Altre bici test
17/07/2013 Visibile a tutti Monteceneri 4.94 331 00:36:15 8.18 Km\h Santacruz Bronson C
17/07/2013 Visibile a tutti tamaro-neggia-quartino (di vino) 16.85 483 02:08:41 7.85 Km\h Santacruz Bronson C
16/07/2013 Visibile a tutti Lucomagno 24.1 526 02:13:13 10.86 Km\h Santacruz Bronson C
14/07/2013 Visibile a tutti Allenamento SP8 del Passo San Marco 8.21 82 00:29:25 16.75 Km\h Santacruz Bronson C
14/07/2013 Visibile a tutti Allenamento SP8 del Passo San Marco 11.7 243 01:07:58 10.33 Km\h Santacruz Bronson C
13/07/2013 Visibile a tutti Allenamento SP8 del Passo San Marco 11.4 19 00:40:05 17.07 Km\h Santacruz Bronson C
13/07/2013 Visibile a tutti Allenamento Strada Provinciale 7 10.87 82 00:46:44 13.96 Km\h Santacruz Bronson C
13/07/2013 Visibile a tutti Val Brembana 12.32 32 00:46:30 15.9 Km\h Santacruz Bronson C
12/07/2013 Visibile a tutti Legnone 54.95 2509 06:03:37 9.07 Km\h Santacruz Bronson C
11/07/2013 Visibile a tutti tamaro enduro 8.65 81 00:50:55 10.19 Km\h Santacruz Bronson C
11/07/2013 Visibile a tutti Allenamento 11-07-13 alle 11:44 8.54 79 00:34:22 14.91 Km\h Santacruz Bronson C
10/07/2013 Visibile a tutti the whole Tamarrata 17.36 390 01:33:58 11.08 Km\h Santacruz Bronson C
10/07/2013 Visibile a tutti Allenamento Via alla Cava, Torricella-Taverne 8.9 124 00:28:46 18.56 Km\h Santacruz Bronson C
08/07/2013 Visibile a tutti Allenamento Splügenpass, Splügen 6.43 13 00:27:23 14.1 Km\h
08/07/2013 Visibile a tutti Allenamento Splügenpass, Splügen 12.63 86 01:06:10 11.45 Km\h
07/07/2013 Visibile a tutti Ritom-Passo del Sole-Nara 56.74 2492 04:49:12 11.77 Km\h Santacruz Bronson C
06/07/2013 Visibile a tutti 8 Bar 52.66 2114 03:52:14 13.6 Km\h Santacruz Bronson C
05/07/2013 Visibile a tutti Allenamento Via Medi, Lugano 19.19 271 01:06:02 17.44 Km\h Santacruz Bronson C
05/07/2013 Visibile a tutti Allenamento 05-07-13 alle 09:48 13.16 174 00:57:36 13.71 Km\h Santacruz Bronson C
05/07/2013 Visibile a tutti Allenamento Monte Ceneri, Rivera 30.88 645 02:07:34 14.53 Km\h Santacruz Bronson C
04/07/2013 Visibile a tutti Tamaro-Indemini-Neggia-Quartino-Rivera 31.96 1477 03:47:06 8.44 Km\h Santacruz Bronson C
02/07/2013 Visibile a tutti Allenamento Via alla Chiesa, Capriasca 18.54 906 01:46:51 10.41 Km\h Santacruz Bronson C
01/07/2013 Visibile a tutti Tamaro enduro 18.37 421 01:29:14 12.35 Km\h Santacruz Bronson C
30/06/2013 Visibile a tutti trasferimento 8.04 114 00:27:14 17.72 Km\h Santacruz Bronson C
30/06/2013 Visibile a tutti whole Tamarrata 17.61 380 01:36:51 10.91 Km\h Santacruz Bronson C
29/06/2013 Visibile a tutti Caregone 71.81 3114 06:32:48 10.97 Km\h Altre bici test
27/06/2013 Visibile a tutti Allenamento Via alla Chiesa, Capriasca 18.62 935 01:36:43 11.55 Km\h Altre bici test
26/06/2013 Visibile a tutti spark 20.18 344 01:12:00 16.81 Km\h Altre bici test
25/06/2013 Visibile a tutti genius LT 12.11 85 00:40:23 18 Km\h Altre bici test
24/06/2013 Visibile a tutti genius lt 12.45 96 00:43:23 17.22 Km\h Altre bici test
21/06/2013 Visibile a tutti Allenamento Via alla Chiesa, Capriasca 18.63 917 01:45:05 10.63 Km\h Santacruz Bronson C
20/06/2013 Visibile a tutti mattutino 5.94 219 00:24:21 14.64 Km\h Altre bici test
20/06/2013 Visibile a tutti Tamarrata con temporale 25.82 515 01:53:43 13.62 Km\h Santacruz Bronson C
20/06/2013 Visibile a tutti Allenamento Via Medi, Lugano 6.18 165 00:18:01 20.59 Km\h Santacruz Bronson C
19/06/2013 Visibile a tutti Generoso-Melano 15.79 162 01:11:19 13.28 Km\h Santacruz Bronson C
18/06/2013 Visibile a tutti Allenamento Via Fontanedo 16.04 728 01:31:52 10.48 Km\h Santacruz Bronson C
17/06/2013 Visibile a tutti The whole Tamarrata 17.19 384 01:41:22 10.18 Km\h Santacruz Bronson C
14/06/2013 Visibile a tutti Allenamento Soresina, Rivera 4.46 12 00:18:26 14.53 Km\h
14/06/2013 Visibile a tutti Allenamento 14-06-13 alle 12:30 13.24 187 00:56:18 14.11 Km\h
13/06/2013 Visibile a tutti Allenamento Via alla Chiesa, Capriasca 18.71 931 01:34:20 11.9 Km\h
12/06/2013 Visibile a tutti Tamaro 17.67 433 01:30:35 11.7 Km\h
12/06/2013 Visibile a tutti Allenamento Soresina, Rivera 5.26 397 00:18:52 16.71 Km\h
11/06/2013 Visibile a tutti lago Tremorgio 24.65 1157 02:57:13 8.34 Km\h
11/06/2013 Visibile a tutti Allenamento Fiesso di Sopra, Prato (Leventina) 4.81 16 00:21:44 13.29 Km\h
10/06/2013 Visibile a tutti Allenamento Via al Monteggiolo, Colico Piano 30.76 1328 02:34:00 11.98 Km\h
08/06/2013 Visibile a tutti Allenamento 08-06-13 alle 07:00 18.38 461 01:30:39 12.17 Km\h Santacruz Bronson C
07/06/2013 Visibile a tutti Tamaro crossing summer conditions 17.77 456 01:32:13 11.56 Km\h Santacruz Bronson C
07/06/2013 Visibile a tutti Allenamento 07-06-13 alle 10:36 18.44 441 01:29:34 12.35 Km\h Santacruz Bronson C
06/06/2013 Visibile a tutti Allenamento 06-06-13 alle 08:42 19.07 464 01:34:44 12.08 Km\h
05/06/2013 Visibile a tutti Tamaro crossing 21.29 1518 01:33:54 13.61 Km\h Santacruz Bronson C
05/06/2013 Visibile a tutti Allenamento 05-06-13 alle 11:59 13.28 163 00:57:10 13.94 Km\h Santacruz Bronson C
02/06/2013 Visibile a tutti Hangover 13.15 360 01:09:25 11.36 Km\h Altre bici test
02/06/2013 Visibile a tutti Hiline 16.08 368 01:20:17 12.02 Km\h Altre bici test
01/06/2013 Visibile a tutti Hiline 15.77 390 01:18:04 12.12 Km\h Altre bici test
31/05/2013 Visibile a tutti Sedona Fuel ex 29 22.56 336 01:28:57 15.21 Km\h Altre bici test
30/05/2013 Visibile a tutti Allenamento Canyon Circle Drive, Sedona 12.96 331 01:14:45 10.4 Km\h Altre bici test
28/05/2013 Visibile a tutti Tamaro enduro 4.75 25 00:27:07 10.51 Km\h Santacruz Bronson C
28/05/2013 Visibile a tutti Tamaro enduro 12.55 142 00:59:47 12.6 Km\h Santacruz Bronson C
23/05/2013 Visibile a tutti Foglia di faggio 7.12 4 00:31:00 13.77 Km\h Santacruz Bronson C
23/05/2013 Visibile a tutti foglia di faggio 2 7.15 0 00:26:58 15.91 Km\h Santacruz Bronson C
23/05/2013 Visibile a tutti Tamaro enduro 12.29 131 00:56:59 12.94 Km\h Santacruz Bronson C
22/05/2013 Visibile a tutti Tamaro 25.56 754 02:14:33 11.4 Km\h Santacruz Bronson C
22/05/2013 Visibile a tutti Allenamento Via al Pozzo, Lugano 8 133 00:26:46 17.94 Km\h Santacruz Bronson C
19/05/2013 Visibile a tutti Allenamento Strada Provinciale Punta Ala 57.9 1512 03:40:23 15.76 Km\h Santacruz Bronson C
18/05/2013 Visibile a tutti Allenamento Strada Provinciale Tirli 1.17 2 00:03:53 18.04 Km\h Santacruz Bronson C
18/05/2013 Visibile a tutti Allenamento Via Belvedere, Zona 167 Scarlino 3.74 17 00:12:14 18.37 Km\h Santacruz Bronson C
17/05/2013 Visibile a tutti Allenamento Località Poderi Alti 4.51 81 00:19:14 14.08 Km\h Santacruz Bronson C
17/05/2013 Visibile a tutti Allenamento Via Belvedere, Zona 167 Scarlino 5.51 308 00:26:34 12.45 Km\h Santacruz Bronson C
17/05/2013 Visibile a tutti Allenamento Via Belvedere, Zona 167 Scarlino 3.92 80 00:17:43 13.28 Km\h Santacruz Bronson C
17/05/2013 Visibile a tutti Allenamento Strada Provinciale Punta Ala 8.53 82 00:25:08 20.37 Km\h Santacruz Bronson C
17/05/2013 Visibile a tutti Allenamento Strada Provinciale Punta Ala 11.35 269 00:51:56 13.11 Km\h Santacruz Bronson C
16/05/2013 Visibile a tutti Allenamento Strada Provinciale Punta Ala 15.7 477 01:10:37 13.34 Km\h Santacruz Bronson C
16/05/2013 Visibile a tutti Allenamento Strada Provinciale Punta Ala 15.75 492 01:13:08 12.93 Km\h Santacruz Bronson C
15/05/2013 Visibile a tutti Allenamento Strada Provinciale Punta Ala 20.69 623 01:22:14 15.1 Km\h Santacruz Bronson C
14/05/2013 Visibile a tutti Allenamento Via al Pozzo, Lugano 38.69 1312 02:35:43 14.91 Km\h Santacruz Bronson C
13/05/2013 Visibile a tutti Tamaro Enduro 14.32 138 01:07:31 12.72 Km\h Santacruz Bronson C
13/05/2013 Visibile a tutti Tamaro enduro 2 12.88 130 00:59:00 13.1 Km\h Santacruz Bronson C
11/05/2013 Visibile a tutti Allenamento Arosio, Alto Malcantone 8.09 39 00:21:18 22.8 Km\h Santacruz Bronson C
09/05/2013 Visibile a tutti Allenamento Via al Pozzo, Lugano 35.72 977 02:54:18 12.3 Km\h Santacruz Bronson C
08/05/2013 Visibile a tutti tamaro enduro 15.7 407 01:52:44 8.35 Km\h Santacruz Bronson C
08/05/2013 Visibile a tutti Tamaro enduro 2 10.58 149 00:53:44 11.82 Km\h Santacruz Bronson C
07/05/2013 Visibile a tutti Allenamento Via al Pozzo, Lugano 73.62 2364 05:17:01 13.93 Km\h
04/05/2013 Visibile a tutti Tremalzo bocca di fobia passo rocchetta 21.5 833 01:29:22 14.43 Km\h
03/05/2013 Visibile a tutti 422 21.29 976 01:37:15 13.14 Km\h
03/05/2013 Visibile a tutti anaconda 10.63 17 00:44:19 14.4 Km\h
02/05/2013 Visibile a tutti Training # 4 0.06 12 00:00:33 6.26 Km\h
02/05/2013 Visibile a tutti monti di torricella 28.67 877 02:06:06 13.64 Km\h
30/04/2013 Visibile a tutti Arbostora 27.14 557 01:30:38 17.97 Km\h
27/04/2013 Visibile a tutti Arbostora 27.62 605 01:28:24 18.75 Km\h
25/04/2013 Visibile a tutti Monte Lema 12.24 177 00:49:18 14.9 Km\h
24/04/2013 Visibile a tutti Allenamento Baggio, Capriasca 9.68 202 00:46:24 12.52 Km\h
24/04/2013 Visibile a tutti Tamaro 2.47 0 00:11:16 13.18 Km\h
19/04/2013 Visibile a tutti Monti di torricella 29.16 921 02:02:24 14.29 Km\h
18/04/2013 Visibile a tutti Tamaro DH 2.95 8 00:09:07 19.44 Km\h
18/04/2013 Visibile a tutti Tamaro DH 2 2.64 0 00:09:05 17.42 Km\h
18/04/2013 Visibile a tutti Tamaro DH 4 2.49 0 00:08:55 16.74 Km\h
18/04/2013 Visibile a tutti Allenamento Soresina, Rivera 3.01 6 00:11:51 15.26 Km\h
18/04/2013 Visibile a tutti Allenamento Soresina, Rivera 2.82 1 00:10:08 16.69 Km\h
18/04/2013 Visibile a tutti Superenduro Pogno 34.12 0 02:08:38 15.92 Km\h Altre bici test
17/04/2013 Visibile a tutti Capanna Monte Bar 25.23 1123 02:01:59 12.41 Km\h
16/04/2013 Visibile a tutti Tamaro DH 2.59 0 00:09:31 16.33 Km\h
16/04/2013 Visibile a tutti Tamaro DH 2 2.92 2 00:09:26 18.56 Km\h
15/04/2013 Visibile a tutti Torricella 2 9.63 579 00:33:10 17.43 Km\h
15/04/2013 Visibile a tutti Trasferimento 8.4 190 00:27:42 18.19 Km\h
15/04/2013 Visibile a tutti monti di Torricella 1 7.08 595 00:34:09 12.43 Km\h
13/04/2013 Visibile a tutti Crocione 39.69 1342 02:40:41 14.82 Km\h
12/04/2013 Visibile a tutti Training 9 (live) 7.69 165 00:23:09 19.93 Km\h
12/04/2013 Visibile a tutti monti di torricella 15.15 690 00:55:22 16.42 Km\h
11/04/2013 Visibile a tutti Alpe Davrosio 14.4 684 01:14:35 11.59 Km\h
10/04/2013 Visibile a tutti Tamaro DH 2.86 107 00:10:41 16.08 Km\h
10/04/2013 Visibile a tutti Allenamento Soresina, Rivera 2.74 0 00:10:54 15.09 Km\h
10/04/2013 Visibile a tutti Allenamento Soresina, Rivera 2.84 0 00:11:59 14.2 Km\h
10/04/2013 Visibile a tutti Allenamento Soresina, Rivera 2.94 1 00:11:12 15.74 Km\h
09/04/2013 Visibile a tutti Tamaro DH 2.94 6 00:15:39 11.27 Km\h
09/04/2013 Visibile a tutti Tamaro DH 2.66 3 00:12:58 12.32 Km\h
09/04/2013 Visibile a tutti Training 4 (live) 0.12 1 00:00:20 22.28 Km\h
09/04/2013 Visibile a tutti Training 5 (live) 4.68 643 00:11:50 23.73 Km\h
09/04/2013 Visibile a tutti Training 6 (live) 2.66 0 00:12:55 12.34 Km\h
07/04/2013 Visibile a tutti Allenamento Via al Pozzo, Lugano 33.52 1029 02:09:56 15.48 Km\h
29/03/2013 Visibile a tutti Arbostora 27.46 547 01:29:46 18.36 Km\h
25/03/2013 Visibile a tutti Sedona Day 2 23.32 425 01:52:32 12.43 Km\h Altre bici test
24/03/2013 Visibile a tutti Sedona Day 1 25.29 448 01:36:07 15.79 Km\h Altre bici test
22/03/2013 Visibile a tutti Allenamento Via Dottor Giovanni Polar, Lugano 30.47 745 01:42:32 17.83 Km\h
21/03/2013 Visibile a tutti Allenamento Via Medi, Lugano 59.75 634 02:07:04 28.21 Km\h
16/03/2013 Visibile a tutti Allenamento Monte, Corticiasca 23.41 450 01:36:19 14.58 Km\h
15/03/2013 Visibile a tutti Allenamento Via alla Chiesa, Capriasca 13.47 628 01:14:00 10.92 Km\h
14/03/2013 Visibile a tutti Allenamento Arosio di Sopra 20, Alto Malcantone 16.76 310 00:58:59 17.05 Km\h
14/03/2013 Visibile a tutti Allenamento Lugano 9.59 206 00:38:37 14.9 Km\h
13/03/2013 Visibile a tutti monti di torricella 16.6 626 01:02:41 15.89 Km\h
13/03/2013 Visibile a tutti Allenamento 13-03-13 alle 11:57 6.33 103 00:18:03 21.04 Km\h
12/03/2013 Visibile a tutti Bitumiera 34.72 747 01:30:02 23.14 Km\h
12/03/2013 Visibile a tutti test iphone segmenti 34.41 709 01:35:03 21.72 Km\h
11/03/2013 Visibile a tutti Crocione Monte Bar 18.79 946 01:45:39 10.67 Km\h
09/03/2013 Visibile a tutti Arbostora cambio rotto 27.16 714 01:50:02 14.81 Km\h
05/03/2013 Visibile a tutti Arbostora 30.34 682 02:04:35 14.61 Km\h
04/03/2013 Visibile a tutti Arbostora 28.75 590 01:37:07 17.76 Km\h
28/02/2013 Visibile a tutti PS2 26.43 654 01:46:58 14.83 Km\h
28/02/2013 Visibile a tutti Minisuperenduro Cannondale 19.7 521 01:18:35 15.04 Km\h
27/02/2013 Visibile a tutti Cannondale XC ride 20.5 555 01:31:05 13.51 Km\h
23/02/2013 Visibile a tutti Arbostora con neve 28.68 640 01:44:32 16.46 Km\h
21/02/2013 Visibile a tutti Mini Trans Provence Giorno 2/2 2.23 41 00:07:01 19.05 Km\h
21/02/2013 Visibile a tutti Allenamento 21-02-13 alle 08:38 8.15 72 00:29:31 16.57 Km\h
20/02/2013 Visibile a tutti Allenamento 20-02-13 alle 14:59 3.66 0 00:13:02 16.85 Km\h
20/02/2013 Visibile a tutti Allenamento 20-02-13 alle 13:14 7.46 71 00:32:35 13.73 Km\h
20/02/2013 Visibile a tutti Mini Trans Provence 17.22 719 01:32:42 11.15 Km\h
19/02/2013 Visibile a tutti Peillon 11.24 509 01:08:02 9.91 Km\h
18/02/2013 Visibile a tutti Alpe Davrosio 14.94 703 01:29:02 10.07 Km\h
08/02/2013 Visibile a tutti Arbostora 28.21 744 01:49:38 15.44 Km\h
06/02/2013 Visibile a tutti Minicrocione 13.4 599 01:07:59 11.83 Km\h
05/02/2013 Visibile a tutti Monti di Torricella 7.91 117 00:33:38 14.1 Km\h
05/02/2013 Visibile a tutti Monti di Torricella 7.41 113 00:34:53 12.75 Km\h
04/02/2013 Visibile a tutti Cademario-Arosio 30.63 955 02:11:59 13.92 Km\h
03/02/2013 Visibile a tutti Arbostora 27.88 672 01:53:13 14.78 Km\h
01/02/2013 Visibile a tutti Minicrocione 31.9 836 02:01:04 15.81 Km\h
31/01/2013 Visibile a tutti Allenamento 31-01-13 alle 12:42 4.4 20 00:18:11 14.52 Km\h
31/01/2013 Visibile a tutti Allenamento 31-01-13 alle 10:25 6.59 42 00:27:32 14.35 Km\h
31/01/2013 Visibile a tutti Allenamento 31-01-13 alle 11:23 7.31 136 00:33:57 12.93 Km\h
30/01/2013 Visibile a tutti Valtellina 14.94 678 01:25:04 10.54 Km\h
29/01/2013 Visibile a tutti Monte Brè 18.12 546 01:16:05 14.29 Km\h
28/01/2013 Visibile a tutti Tesserete 26.57 682 01:40:26 15.87 Km\h
26/01/2013 Visibile a tutti Arbostora 28.08 650 01:51:34 15.1 Km\h
24/01/2013 Visibile a tutti Arbostora 28.9 706 01:59:21 14.53 Km\h
23/01/2013 Visibile a tutti Roveredo neve 26.76 672 01:40:38 15.96 Km\h
22/01/2013 Visibile a tutti Arbostora 28.12 694 01:57:51 14.32 Km\h
14/01/2013 Visibile a tutti Monte Brè 18.38 552 01:21:45 13.49 Km\h
12/01/2013 Visibile a tutti La Bassa 17.44 1028 02:06:21 8.28 Km\h
11/01/2013 Visibile a tutti Monti di Torricella 15.16 593 01:33:02 9.78 Km\h
10/01/2013 Visibile a tutti Crocione 18.54 907 01:39:41 11.16 Km\h
09/01/2013 Visibile a tutti Monti di Torricella 15.18 615 01:25:10 10.69 Km\h
08/01/2013 Visibile a tutti Arosio 20.02 724 01:14:29 16.13 Km\h
06/01/2013 Visibile a tutti Corticiasca 23.55 432 01:25:55 16.45 Km\h
05/01/2013 Visibile a tutti crocione 19.54 957 01:38:41 11.88 Km\h
04/01/2013 Visibile a tutti Minicrocione 31.2 826 01:58:29 15.8 Km\h
03/01/2013 Visibile a tutti Sotto il crocione con neve 31.57 821 02:11:59 14.35 Km\h
01/01/2013 Visibile a tutti Prima pedalata del 2013 28.36 696 02:00:01 14.18 Km\h
31/12/2012 Visibile a tutti Tornantini di fine anno 4.55 27 00:25:02 10.9 Km\h
30/12/2012 Visibile a tutti Minicrocione 32.89 1000 02:17:43 14.33 Km\h
29/12/2012 Visibile a tutti Crocione con neve 18.61 912 01:47:43 10.37 Km\h
12/12/2012 Visibile a tutti Arbostora 28.32 713 02:03:19 13.78 Km\h
11/12/2012 Visibile a tutti Crocione vento e freddo boia 18.56 911 01:48:59 10.22 Km\h
10/12/2012 Visibile a tutti Bocchetta di Nava 9.65 492 00:56:43 10.21 Km\h
06/12/2012 Visibile a tutti Gola di Lago 20.96 765 01:47:19 11.72 Km\h
05/12/2012 Visibile a tutti Alpe Davrosio 14.36 678 01:21:41 10.55 Km\h
03/12/2012 Visibile a tutti Crocione 18.67 909 01:47:05 10.46 Km\h
30/11/2012 Visibile a tutti Arbostora 28.49 689 01:59:20 14.32 Km\h
29/11/2012 Visibile a tutti Sotto il Crocione 13.52 603 01:12:55 11.12 Km\h
25/11/2012 Visibile a tutti Crocione con shuttle 22.99 658 01:31:55 15.01 Km\h
24/11/2012 Visibile a tutti Crocione 18.72 916 01:40:06 11.22 Km\h
23/11/2012 Visibile a tutti Sotto il Crocione 33.01 993 02:17:24 14.41 Km\h
21/11/2012 Visibile a tutti Monte Tremezzo 38.48 1551 02:57:00 13.04 Km\h
20/11/2012 Visibile a tutti Crocione 18.6 899 01:43:46 10.76 Km\h
15/11/2012 Visibile a tutti Monte Bar Fotoshooting 29.07 843 02:29:51 11.64 Km\h
13/11/2012 Visibile a tutti Dubino 13.89 583 01:11:35 11.64 Km\h
12/11/2012 Visibile a tutti Taverne-Tamaro 22.02 1132 02:36:27 8.45 Km\h
09/11/2012 Visibile a tutti Motto della Croce 18.68 898 01:35:50 11.69 Km\h
05/11/2012 Visibile a tutti Monte Bar 40.51 1416 03:32:12 11.45 Km\h
29/10/2012 Visibile a tutti Arbostora 28.22 672 01:57:47 14.37 Km\h
25/10/2012 Visibile a tutti Allenamento 25-10-12 alle 07:12 25.27 468 01:49:15 13.88 Km\h
24/10/2012 Visibile a tutti SRAM Schweinfurt 22.16 369 01:28:13 15.07 Km\h
20/10/2012 Visibile a tutti Monte Bar 18.54 893 01:32:07 12.08 Km\h
19/10/2012 Visibile a tutti Tamaro-Monteviasco 66.99 2003 04:21:40 15.36 Km\h
18/10/2012 Visibile a tutti xc rebelot 21.01 648 01:41:07 12.46 Km\h
17/10/2012 Visibile a tutti Gola di Lago 31.21 895 02:08:10 14.61 Km\h
16/10/2012 Visibile a tutti Bar Lago 29.77 1161 02:26:41 12.18 Km\h
11/10/2012 Visibile a tutti Allenamento 11-10-12 alle 11:53 41.57 519 01:29:19 27.92 Km\h
10/10/2012 Visibile a tutti Generoso 27.22 1512 01:35:28 17.11 Km\h
08/10/2012 Visibile a tutti The whole tamarrata 29.4 1550 02:20:58 12.51 Km\h
06/10/2012 Visibile a tutti Tamaro 18.53 418 01:31:40 12.13 Km\h
05/10/2012 Visibile a tutti Monte Generoso cannato 28.11 1511 01:24:34 19.95 Km\h
03/10/2012 Visibile a tutti Monte Bar definitivo 40.11 1362 03:22:41 11.87 Km\h
26/09/2012 Visibile a tutti Morcote 28.23 485 01:33:21 18.15 Km\h
21/09/2012 Visibile a tutti Motto della Croce 18.59 893 01:39:57 11.16 Km\h
20/09/2012 Visibile a tutti Alpe del corno 14.57 589 01:03:08 13.85 Km\h
19/09/2012 Visibile a tutti Tamaro 18.34 411 01:26:33 12.72 Km\h
18/09/2012 Visibile a tutti Tracciolino 16.21 713 01:34:50 10.25 Km\h
13/09/2012 Visibile a tutti Allenamento 13-09-12 alle 09:02 8.91 117 00:29:55 17.87 Km\h
13/09/2012 Visibile a tutti Allenamento 13-09-12 alle 10:04 18.01 386 01:34:44 11.41 Km\h
11/09/2012 Visibile a tutti Allenamento 11-09-12 alle 12:16 19.04 878 01:29:16 12.8 Km\h
10/09/2012 Visibile a tutti Allenamento 10-09-12 alle 12:24 12.56 353 01:14:13 10.15 Km\h
07/09/2012 Visibile a tutti Carosello 3000 madonna e giù 9.26 134 00:45:58 12.09 Km\h
03/09/2012 Visibile a tutti Allenamento 03-09-12 alle 13:27 14.47 163 01:00:37 14.32 Km\h
26/08/2012 Visibile a tutti Crocione Monte Bar 35.39 1113 02:09:24 16.41 Km\h
30/07/2012 Visibile a tutti Val Travenanzes 28.54 540 02:02:42 13.95 Km\h
26/07/2012 Visibile a tutti Allenamento 26-07-12 alle 06:24 8.68 43 00:43:40 11.93 Km\h
26/07/2012 Visibile a tutti Allenamento 26-07-12 alle 12:42 15.11 293 01:22:39 10.97 Km\h
24/07/2012 Visibile a tutti Tamaro 18.49 403 01:30:12 12.3 Km\h
19/07/2012 Visibile a tutti Tamaro-Quartino 22.2 782 02:34:33 8.62 Km\h
18/07/2012 Visibile a tutti Passo del Sole - Olivone 24.76 526 02:02:12 12.15 Km\h
17/07/2012 Visibile a tutti Allenamento 17-07-12 alle 11:31 4.76 186 00:18:18 15.6 Km\h
16/07/2012 Visibile a tutti Tamaro 18.48 414 01:34:30 11.73 Km\h
16/07/2012 Visibile a tutti Allenamento 16-07-12 alle 12:10 11.66 308 00:40:30 17.27 Km\h
07/07/2012 Visibile a tutti Val Maira - Monte Oronaye 34.18 1741 03:27:41 9.87 Km\h
06/07/2012 Visibile a tutti Colle San Giovanni 25.69 1046 02:14:18 11.48 Km\h
05/07/2012 Visibile a tutti Val Maira - Colle San Giovanni 24.74 820 02:14:30 11.04 Km\h
04/07/2012 Visibile a tutti Val Maira - Elva special 47.73 1636 04:03:14 11.77 Km\h
03/07/2012 Visibile a tutti Val Maira - Gardetta 36.5 1224 03:07:21 11.69 Km\h
01/07/2012 Visibile a tutti Val Maira, strada napoleonica 23.76 800 02:04:08 11.48 Km\h
29/06/2012 Visibile a tutti Allenamento 29-06-12 alle 01:22 8.11 58 00:29:29 16.5 Km\h
28/06/2012 Visibile a tutti Porcupine descent 31.3 61 01:49:58 17.08 Km\h
27/06/2012 Visibile a tutti The whole enchilada 54.08 480 03:17:52 16.4 Km\h Altre bici test
21/06/2012 Visibile a tutti Bassa di Nara 56.69 1846 04:24:27 12.86 Km\h
19/06/2012